Observation data for Van Horn on 09/26/2020      Previous  Date  Next       Current Mesonet Observations  Soil Data  Daily Summary Page  Observations in Plain Language
KVA1 260500Z 21009KT 24/02 A3003 RMK A01 T02440023  RH  024%=      5-min Rain = 0
KVA1 260501Z 22008KT 25/02 A3003 RMK A01 T02460024  RH  024%=      5-min Rain = 0
KVA1 260502Z 22009KT 25/02 A3003 RMK A01 T02460024  RH  023%=      5-min Rain = 0
KVA1 260503Z 21010KT 25/02 A3003 RMK A01 T02450024  RH  024%=      5-min Rain = 0
KVA1 260504Z 21010KT 25/03 A3003 RMK A01 T02460026  RH  024%=      5-min Rain = 0
KVA1 260505Z 21011KT 25/03 A3003 RMK A01 T02460027  RH  024%=      5-min Rain = 0
KVA1 260506Z 22010KT 25/03 A3003 RMK A01 T02480029  RH  024%=      5-min Rain = 0
KVA1 260507Z 21008KT 25/03 A3003 RMK A01 T02500030  RH  024%=      5-min Rain = 0
KVA1 260508Z 20007KT 25/03 A3003 RMK A01 T02500030  RH  024%=      5-min Rain = 0
KVA1 260509Z 20007KT 25/03 A3003 RMK A01 T02490029  RH  024%=      5-min Rain = 0
KVA1 260510Z 20008KT 25/03 A3003 RMK A01 T02470029  RH  024%=      5-min Rain = 0
KVA1 260511Z 20008KT 25/03 A3003 RMK A01 T02460029  RH  024%=      5-min Rain = 0
KVA1 260512Z 19008KT 25/03 A3003 RMK A01 T02460030  RH  025%=      5-min Rain = 0
KVA1 260513Z 19010KT 25/03 A3003 RMK A01 T02460031  RH  025%=      5-min Rain = 0
KVA1 260514Z 18011KT 25/03 A3003 RMK A01 T02460032  RH  025%=      5-min Rain = 0
KVA1 260515Z 18011KT 25/03 A3003 RMK A01 T02460033  RH  025%=      5-min Rain = 0
KVA1 260516Z 18011KT 25/03 A3003 RMK A01 T02460033  RH  025%=      5-min Rain = 0
KVA1 260517Z 18011KT 25/04 A3003 RMK A01 T02460035  RH  025%=      5-min Rain = 0
KVA1 260518Z 18011KT 25/04 A3003 RMK A01 T02470036  RH  025%=      5-min Rain = 0
KVA1 260519Z 18011KT 25/04 A3003 RMK A01 T02480037  RH  026%=      5-min Rain = 0
KVA1 260520Z 18010KT 25/04 A3003 RMK A01 T02480038  RH  026%=      5-min Rain = 0
KVA1 260521Z 18010KT 25/04 A3003 RMK A01 T02480038  RH  026%=      5-min Rain = 0
KVA1 260522Z 17009KT 25/04 A3003 RMK A01 T02480040  RH  026%=      5-min Rain = 0
KVA1 260523Z 17010KT 25/04 A3003 RMK A01 T02480041  RH  026%=      5-min Rain = 0
KVA1 260524Z 17010KT 25/04 A3003 RMK A01 T02480042  RH  026%=      5-min Rain = 0
KVA1 260525Z 18010KT 25/04 A3003 RMK A01 T02480043  RH  026%=      5-min Rain = 0
KVA1 260526Z 18009KT 25/04 A3003 RMK A01 T02480044  RH  027%=      5-min Rain = 0
KVA1 260527Z 18010KT 25/05 A3003 RMK A01 T02480045  RH  027%=      5-min Rain = 0
KVA1 260528Z 18010KT 25/05 A3003 RMK A01 T02480046  RH  027%=      5-min Rain = 0
KVA1 260529Z 18010KT 25/05 A3003 RMK A01 T02480047  RH  027%=      5-min Rain = 0
KVA1 260530Z 19010KT 25/05 A3003 RMK A01 T02490047  RH  027%=      5-min Rain = 0
KVA1 260531Z 20009KT 25/05 A3003 RMK A01 T02500047  RH  027%=      5-min Rain = 0
KVA1 260532Z 20008KT 25/05 A3003 RMK A01 T02490048  RH  027%=      5-min Rain = 0
KVA1 260533Z 21008KT 25/05 A3003 RMK A01 T02480047  RH  027%=      5-min Rain = 0
KVA1 260534Z 20009KT 25/05 A3003 RMK A01 T02480048  RH  027%=      5-min Rain = 0
KVA1 260535Z 20009KT 25/05 A3003 RMK A01 T02470048  RH  028%=      5-min Rain = 0
KVA1 260536Z 20008KT 25/05 A3003 RMK A01 T02460048  RH  028%=      5-min Rain = 0
KVA1 260537Z 20009KT 25/05 A3003 RMK A01 T02460048  RH  028%=      5-min Rain = 0
KVA1 260538Z 19008KT 25/05 A3003 RMK A01 T02450049  RH  028%=      5-min Rain = 0
KVA1 260539Z 19008KT 25/05 A3003 RMK A01 T02450050  RH  028%=      5-min Rain = 0
KVA1 260540Z 20007KT 25/05 A3003 RMK A01 T02460051  RH  028%=      5-min Rain = 0
KVA1 260541Z 20008KT 25/05 A3003 RMK A01 T02460051  RH  028%=      5-min Rain = 0
KVA1 260542Z 21009KT 25/05 A3003 RMK A01 T02460053  RH  029%=      5-min Rain = 0
KVA1 260543Z 22010KT 25/05 A3003 RMK A01 T02470054  RH  029%=      5-min Rain = 0
KVA1 260544Z 22009KT 25/05 A3003 RMK A01 T02480054  RH  029%=      5-min Rain = 0
KVA1 260545Z 21008KT 25/05 A3003 RMK A01 T02480054  RH  029%=      5-min Rain = 0
KVA1 260546Z 21008KT 25/05 A3003 RMK A01 T02480054  RH  029%=      5-min Rain = 0
KVA1 260547Z 22007KT 25/05 A3003 RMK A01 T02470054  RH  029%=      5-min Rain = 0
KVA1 260548Z 22007KT 25/05 A3003 RMK A01 T02450053  RH  029%=      5-min Rain = 0
KVA1 260549Z 22007KT 24/05 A3003 RMK A01 T02430053  RH  029%=      5-min Rain = 0
KVA1 260550Z 22007KT 24/05 A3003 RMK A01 T02420053  RH  029%=      5-min Rain = 0
KVA1 260551Z 22007KT 24/05 A3003 RMK A01 T02410053  RH  030%=      5-min Rain = 0
KVA1 260552Z 22007KT 24/05 A3003 RMK A01 T02410054  RH  030%=      5-min Rain = 0
KVA1 260553Z 22007KT 24/05 A3003 RMK A01 T02400054  RH  030%=      5-min Rain = 0
KVA1 260554Z 22008KT 24/06 A3003 RMK A01 T02400055  RH  030%=      5-min Rain = 0
KVA1 260555Z 23008KT 24/06 A3003 RMK A01 T02400055  RH  030%=      5-min Rain = 0
KVA1 260556Z 22007KT 24/05 A3003 RMK A01 T02400054  RH  030%=      5-min Rain = 0
KVA1 260557Z 23007KT 24/05 A3003 RMK A01 T02390054  RH  030%=      5-min Rain = 0
KVA1 260558Z 22008KT 24/05 A3003 RMK A01 T02380054  RH  030%=      5-min Rain = 0
KVA1 260559Z 22008KT 24/05 A3003 RMK A01 T02370054  RH  030%=      5-min Rain = 0
KVA1 260600Z 22008KT 24/05 A3003 RMK A01 T02370054  RH  031%=      5-min Rain = 0
KVA1 260601Z 22008KT 24/06 A3003 RMK A01 T02370055  RH  031%=      5-min Rain = 0
KVA1 260602Z 22008KT 24/06 A3003 RMK A01 T02380055  RH  031%=      5-min Rain = 0
KVA1 260603Z 22008KT 24/06 A3003 RMK A01 T02370055  RH  031%=      5-min Rain = 0
KVA1 260604Z 22009KT 24/06 A3003 RMK A01 T02370056  RH  031%=      5-min Rain = 0
KVA1 260605Z 22009KT 24/06 A3003 RMK A01 T02370056  RH  031%=      5-min Rain = 0
KVA1 260606Z 21010KT 24/06 A3003 RMK A01 T02380056  RH  031%=      5-min Rain = 0
KVA1 260607Z 21010KT 24/06 A3003 RMK A01 T02380057  RH  031%=      5-min Rain = 0
KVA1 260608Z 21008KT 24/06 A3003 RMK A01 T02390057  RH  031%=      5-min Rain = 0
KVA1 260609Z 21008KT 24/06 A3003 RMK A01 T02390057  RH  031%=      5-min Rain = 0
KVA1 260610Z 21008KT 24/06 A3003 RMK A01 T02380057  RH  031%=      5-min Rain = 0
KVA1 260611Z 21008KT 24/06 A3003 RMK A01 T02380058  RH  031%=      5-min Rain = 0
KVA1 260612Z 21009KT 24/06 A3003 RMK A01 T02380058  RH  031%=      5-min Rain = 0
KVA1 260613Z 21009KT 24/06 A3003 RMK A01 T02380058  RH  031%=      5-min Rain = 0
KVA1 260614Z 21010KT 24/06 A3003 RMK A01 T02370057  RH  031%=      5-min Rain = 0
KVA1 260615Z 20009KT 24/06 A3003 RMK A01 T02360057  RH  032%=      5-min Rain = 0
KVA1 260616Z 20010KT 24/06 A3003 RMK A01 T02350058  RH  032%=      5-min Rain = 0
KVA1 260617Z 20011KT 23/06 A3003 RMK A01 T02340059  RH  032%=      5-min Rain = 0
KVA1 260618Z 20011KT 24/06 A3003 RMK A01 T02350060  RH  032%=      5-min Rain = 0
KVA1 260619Z 20011KT 24/06 A3003 RMK A01 T02360060  RH  032%=      5-min Rain = 0
KVA1 260620Z 20010KT 24/06 A3003 RMK A01 T02360061  RH  032%=      5-min Rain = 0
KVA1 260621Z 20009KT 24/06 A3003 RMK A01 T02370061  RH  032%=      5-min Rain = 0
KVA1 260622Z 21009KT 24/06 A3003 RMK A01 T02370061  RH  032%=      5-min Rain = 0
KVA1 260623Z 22008KT 24/06 A3003 RMK A01 T02360061  RH  032%=      5-min Rain = 0
KVA1 260624Z 22008KT 24/06 A3003 RMK A01 T02350061  RH  032%=      5-min Rain = 0
KVA1 260625Z 21008KT 23/06 A3003 RMK A01 T02340061  RH  033%=      5-min Rain = 0
KVA1 260626Z 21008KT 23/06 A3003 RMK A01 T02340061  RH  033%=      5-min Rain = 0
KVA1 260627Z 21008KT 23/06 A3003 RMK A01 T02330062  RH  033%=      5-min Rain = 0
KVA1 260628Z 20010KT 23/06 A3003 RMK A01 T02320063  RH  034%=      5-min Rain = 0
KVA1 260629Z 21009KT 23/06 A3003 RMK A01 T02330064  RH  034%=      5-min Rain = 0
KVA1 260630Z 21011KT 23/07 A3003 RMK A01 T02340065  RH  034%=      5-min Rain = 0
KVA1 260631Z 21010KT 24/07 A3003 RMK A01 T02350065  RH  034%=      5-min Rain = 0
KVA1 260632Z 21010KT 23/07 A3003 RMK A01 T02340065  RH  034%=      5-min Rain = 0
KVA1 260633Z 21012KT 24/07 A3002 RMK A01 T02350066  RH  034%=      5-min Rain = 0
KVA1 260634Z 21010KT 23/07 A3002 RMK A01 T02340066  RH  034%=      5-min Rain = 0
KVA1 260635Z 21009KT 23/07 A3002 RMK A01 T02340066  RH  034%=      5-min Rain = 0
KVA1 260636Z 21009KT 23/07 A3002 RMK A01 T02330065  RH  034%=      5-min Rain = 0
KVA1 260637Z 20009KT 23/07 A3002 RMK A01 T02310065  RH  034%=      5-min Rain = 0
KVA1 260638Z 20010KT 23/07 A3002 RMK A01 T02300065  RH  035%=      5-min Rain = 0
KVA1 260639Z 19011KT 23/07 A3002 RMK A01 T02290067  RH  035%=      5-min Rain = 0
KVA1 260640Z 19011G16KT 23/07 A3002 RMK A01 T02300069  RH  035%=      5-min Rain = 0
KVA1 260641Z 20013KT 23/07 A3002 RMK A01 T02310070  RH  035%=      5-min Rain = 0
KVA1 260642Z 20012KT 23/07 A3002 RMK A01 T02320071  RH  035%=      5-min Rain = 0
KVA1 260643Z 20010KT 23/07 A3002 RMK A01 T02340071  RH  035%=      5-min Rain = 0
KVA1 260644Z 20011KT 23/07 A3002 RMK A01 T02330070  RH  035%=      5-min Rain = 0
KVA1 260645Z 20009KT 23/07 A3002 RMK A01 T02330071  RH  035%=      5-min Rain = 0
KVA1 260646Z 20011KT 23/07 A3002 RMK A01 T02320072  RH  036%=      5-min Rain = 0
KVA1 260647Z 20011KT 23/07 A3002 RMK A01 T02320072  RH  036%=      5-min Rain = 0
KVA1 260648Z 20010KT 23/07 A3002 RMK A01 T02320073  RH  036%=      5-min Rain = 0
KVA1 260649Z 20010KT 23/07 A3002 RMK A01 T02320073  RH  036%=      5-min Rain = 0
KVA1 260650Z 21011KT 23/07 A3002 RMK A01 T02320074  RH  036%=      5-min Rain = 0
KVA1 260651Z 20011KT 23/07 A3002 RMK A01 T02320074  RH  036%=      5-min Rain = 0
KVA1 260652Z 20010KT 23/07 A3002 RMK A01 T02320074  RH  036%=      5-min Rain = 0
KVA1 260653Z 20010KT 23/08 A3002 RMK A01 T02320075  RH  036%=      5-min Rain = 0
KVA1 260654Z 20011KT 23/08 A3002 RMK A01 T02320075  RH  036%=      5-min Rain = 0
KVA1 260655Z 20011KT 23/08 A3002 RMK A01 T02320075  RH  037%=      5-min Rain = 0
KVA1 260656Z 20011KT 23/08 A3002 RMK A01 T02310075  RH  037%=      5-min Rain = 0
KVA1 260657Z 21010KT 23/08 A3002 RMK A01 T02310076  RH  037%=      5-min Rain = 0
KVA1 260658Z 20010KT 23/08 A3002 RMK A01 T02310076  RH  037%=      5-min Rain = 0
KVA1 260659Z 20011KT 23/08 A3002 RMK A01 T02310077  RH  037%=      5-min Rain = 0
KVA1 260700Z 20011KT 23/08 A3002 RMK A01 T02310077  RH  037%=      5-min Rain = 0
KVA1 260701Z 20010KT 23/08 A3002 RMK A01 T02310077  RH  037%=      5-min Rain = 0
KVA1 260702Z 20012KT 23/08 A3002 RMK A01 T02310077  RH  037%=      5-min Rain = 0
KVA1 260703Z 20011KT 23/08 A3002 RMK A01 T02310078  RH  037%=      5-min Rain = 0
KVA1 260704Z 20010KT 23/08 A3002 RMK A01 T02320078  RH  037%=      5-min Rain = 0
KVA1 260705Z 20009KT 23/08 A3002 RMK A01 T02310078  RH  037%=      5-min Rain = 0
KVA1 260706Z 21011KT 23/08 A3002 RMK A01 T02310078  RH  037%=      5-min Rain = 0
KVA1 260707Z 20010KT 23/08 A3002 RMK A01 T02310078  RH  038%=      5-min Rain = 0
KVA1 260708Z 20010KT 23/08 A3002 RMK A01 T02310079  RH  038%=      5-min Rain = 0
KVA1 260709Z 20011KT 23/08 A3002 RMK A01 T02310079  RH  038%=      5-min Rain = 0
KVA1 260710Z 20010KT 23/08 A3002 RMK A01 T02310079  RH  038%=      5-min Rain = 0
KVA1 260711Z 21011KT 23/08 A3002 RMK A01 T02310079  RH  038%=      5-min Rain = 0
KVA1 260712Z 21009KT 23/08 A3002 RMK A01 T02300079  RH  038%=      5-min Rain = 0
KVA1 260713Z 20009KT 23/08 A3002 RMK A01 T02300079  RH  038%=      5-min Rain = 0
KVA1 260714Z 20009KT 23/08 A3002 RMK A01 T02290079  RH  038%=      5-min Rain = 0
KVA1 260715Z 21010KT 23/08 A3002 RMK A01 T02290079  RH  038%=      5-min Rain = 0
KVA1 260716Z 21009KT 23/08 A3002 RMK A01 T02290080  RH  038%=      5-min Rain = 0
KVA1 260717Z 21010KT 23/08 A3002 RMK A01 T02280080  RH  038%=      5-min Rain = 0
KVA1 260718Z 20011KT 23/08 A3002 RMK A01 T02290080  RH  039%=      5-min Rain = 0
KVA1 260719Z 20009KT 23/08 A3002 RMK A01 T02290080  RH  039%=      5-min Rain = 0
KVA1 260720Z 20010KT 23/08 A3002 RMK A01 T02280080  RH  039%=      5-min Rain = 0
KVA1 260721Z 21010KT 23/08 A3002 RMK A01 T02280081  RH  039%=      5-min Rain = 0
KVA1 260722Z 21011KT 23/08 A3002 RMK A01 T02270081  RH  039%=      5-min Rain = 0
KVA1 260723Z 21010KT 23/08 A3002 RMK A01 T02270080  RH  039%=      5-min Rain = 0
KVA1 260724Z 21010KT 23/08 A3002 RMK A01 T02260080  RH  039%=      5-min Rain = 0
KVA1 260725Z 21009KT 23/08 A3002 RMK A01 T02260081  RH  039%=      5-min Rain = 0
KVA1 260726Z 21008KT 23/08 A3002 RMK A01 T02250080  RH  039%=      5-min Rain = 0
KVA1 260727Z 22010KT 22/08 A3002 RMK A01 T02240080  RH  040%=      5-min Rain = 0
KVA1 260728Z 22009KT 22/08 A3002 RMK A01 T02240081  RH  040%=      5-min Rain = 0
KVA1 260729Z 22010KT 22/08 A3002 RMK A01 T02230080  RH  040%=      5-min Rain = 0
KVA1 260730Z 22009KT 22/08 A3002 RMK A01 T02230080  RH  040%=      5-min Rain = 0
KVA1 260731Z 22009KT 22/08 A3002 RMK A01 T02220080  RH  040%=      5-min Rain = 0
KVA1 260732Z 22010KT 22/08 A3002 RMK A01 T02210080  RH  040%=      5-min Rain = 0
KVA1 260733Z 22009KT 22/08 A3002 RMK A01 T02200080  RH  041%=      5-min Rain = 0
KVA1 260734Z 22009KT 22/08 A3002 RMK A01 T02190080  RH  041%=      5-min Rain = 0
KVA1 260735Z 22010KT 22/08 A3002 RMK A01 T02190080  RH  041%=      5-min Rain = 0
KVA1 260736Z 22009KT 22/08 A3002 RMK A01 T02180080  RH  041%=      5-min Rain = 0
KVA1 260737Z 22009KT 22/08 A3002 RMK A01 T02180081  RH  041%=      5-min Rain = 0
KVA1 260738Z 22009KT 22/08 A3002 RMK A01 T02180081  RH  041%=      5-min Rain = 0
KVA1 260739Z 22009KT 22/08 A3002 RMK A01 T02180081  RH  041%=      5-min Rain = 0
KVA1 260740Z 22009KT 22/08 A3002 RMK A01 T02170081  RH  041%=      5-min Rain = 0
KVA1 260741Z 22009KT 22/08 A3002 RMK A01 T02170081  RH  042%=      5-min Rain = 0
KVA1 260742Z 22009KT 22/08 A3002 RMK A01 T02170081  RH  042%=      5-min Rain = 0
KVA1 260743Z 22011KT 22/08 A3002 RMK A01 T02160081  RH  042%=      5-min Rain = 0
KVA1 260744Z 22009KT 22/08 A3002 RMK A01 T02160081  RH  042%=      5-min Rain = 0
KVA1 260745Z 21010KT 22/08 A3002 RMK A01 T02160082  RH  042%=      5-min Rain = 0
KVA1 260746Z 21009KT 22/08 A3002 RMK A01 T02160082  RH  042%=      5-min Rain = 0
KVA1 260747Z 21009KT 22/08 A3002 RMK A01 T02160082  RH  042%=      5-min Rain = 0
KVA1 260748Z 21009KT 22/08 A3002 RMK A01 T02160083  RH  042%=      5-min Rain = 0
KVA1 260749Z 21009KT 22/08 A3002 RMK A01 T02160083  RH  042%=      5-min Rain = 0
KVA1 260750Z 21010KT 22/08 A3002 RMK A01 T02170084  RH  042%=      5-min Rain = 0
KVA1 260751Z 21009KT 22/08 A3002 RMK A01 T02180084  RH  042%=      5-min Rain = 0
KVA1 260752Z 21010KT 22/08 A3002 RMK A01 T02190084  RH  042%=      5-min Rain = 0
KVA1 260753Z 20011KT 22/09 A3002 RMK A01 T02190085  RH  042%=      5-min Rain = 0
KVA1 260754Z 21011KT 22/09 A3002 RMK A01 T02200085  RH  042%=      5-min Rain = 0
KVA1 260755Z 22010KT 22/09 A3002 RMK A01 T02200085  RH  042%=      5-min Rain = 0
KVA1 260756Z 21009KT 22/09 A3002 RMK A01 T02210085  RH  042%=      5-min Rain = 0
KVA1 260757Z 21008KT 22/09 A3002 RMK A01 T02200085  RH  042%=      5-min Rain = 0
KVA1 260758Z 21009KT 22/09 A3002 RMK A01 T02190085  RH  042%=      5-min Rain = 0
KVA1 260759Z 21009KT 22/09 A3002 RMK A01 T02190085  RH  042%=      5-min Rain = 0
KVA1 260800Z 21007KT 22/08 A3002 RMK A01 T02180084  RH  042%=      5-min Rain = 0
KVA1 260801Z 21008KT 22/09 A3002 RMK A01 T02180085  RH  042%=      5-min Rain = 0
KVA1 260802Z 21007KT 22/09 A3002 RMK A01 T02170085  RH  043%=      5-min Rain = 0
KVA1 260803Z 21007KT 22/08 A3002 RMK A01 T02160084  RH  043%=      5-min Rain = 0
KVA1 260804Z 21007KT 22/09 A3002 RMK A01 T02160085  RH  043%=      5-min Rain = 0
KVA1 260805Z 21008KT 22/09 A3002 RMK A01 T02160085  RH  043%=      5-min Rain = 0
KVA1 260806Z 21008KT 22/09 A3002 RMK A01 T02150085  RH  043%=      5-min Rain = 0
KVA1 260807Z 22006KT 22/09 A3003 RMK A01 T02150085  RH  043%=      5-min Rain = 0
KVA1 260808Z 22006KT 21/09 A3003 RMK A01 T02140085  RH  043%=      5-min Rain = 0
KVA1 260809Z 22006KT 21/09 A3003 RMK A01 T02140085  RH  044%=      5-min Rain = 0
KVA1 260810Z 22006KT 21/09 A3003 RMK A01 T02130085  RH  044%=      5-min Rain = 0
KVA1 260811Z 22006KT 21/09 A3003 RMK A01 T02120085  RH  044%=      5-min Rain = 0
KVA1 260812Z 22007KT 21/09 A3003 RMK A01 T02120085  RH  044%=      5-min Rain = 0
KVA1 260813Z 21007KT 21/09 A3003 RMK A01 T02120085  RH  044%=      5-min Rain = 0
KVA1 260814Z 21007KT 21/09 A3002 RMK A01 T02120085  RH  044%=      5-min Rain = 0
KVA1 260815Z 21006KT 21/09 A3002 RMK A01 T02120086  RH  044%=      5-min Rain = 0
KVA1 260816Z 21006KT 21/09 A3002 RMK A01 T02110085  RH  044%=      5-min Rain = 0
KVA1 260817Z 21007KT 21/09 A3002 RMK A01 T02110085  RH  044%=      5-min Rain = 0
KVA1 260818Z 21007KT 21/09 A3002 RMK A01 T02100085  RH  045%=      5-min Rain = 0
KVA1 260819Z 21007KT 21/09 A3002 RMK A01 T02100085  RH  045%=      5-min Rain = 0
KVA1 260820Z 21007KT 21/09 A3002 RMK A01 T02090086  RH  045%=      5-min Rain = 0
KVA1 260821Z 21007KT 21/09 A3002 RMK A01 T02090085  RH  045%=      5-min Rain = 0
KVA1 260822Z 22006KT 21/09 A3002 RMK A01 T02080086  RH  045%=      5-min Rain = 0
KVA1 260823Z 22007KT 21/09 A3002 RMK A01 T02080086  RH  045%=      5-min Rain = 0
KVA1 260824Z 22006KT 21/09 A3002 RMK A01 T02070085  RH  046%=      5-min Rain = 0
KVA1 260825Z 22007KT 21/09 A3002 RMK A01 T02060085  RH  046%=      5-min Rain = 0
KVA1 260826Z 22008KT 21/09 A3002 RMK A01 T02060086  RH  046%=      5-min Rain = 0
KVA1 260827Z 22007KT 21/09 A3002 RMK A01 T02060086  RH  046%=      5-min Rain = 0
KVA1 260828Z 22007KT 21/09 A3002 RMK A01 T02060086  RH  046%=      5-min Rain = 0
KVA1 260829Z 22007KT 21/09 A3002 RMK A01 T02060086  RH  046%=      5-min Rain = 0
KVA1 260830Z 22008KT 21/09 A3002 RMK A01 T02050086  RH  046%=      5-min Rain = 0
KVA1 260831Z 22007KT 21/09 A3002 RMK A01 T02050086  RH  046%=      5-min Rain = 0
KVA1 260832Z 23007KT 21/09 A3002 RMK A01 T02050086  RH  046%=      5-min Rain = 0
KVA1 260833Z 22007KT 21/09 A3002 RMK A01 T02050086  RH  046%=      5-min Rain = 0
KVA1 260834Z 22008KT 20/09 A3002 RMK A01 T02040086  RH  047%=      5-min Rain = 0
KVA1 260835Z 21008KT 20/09 A3002 RMK A01 T02040086  RH  047%=      5-min Rain = 0
KVA1 260836Z 21008KT 20/09 A3002 RMK A01 T02040086  RH  047%=      5-min Rain = 0
KVA1 260837Z 21008KT 20/09 A3002 RMK A01 T02040086  RH  047%=      5-min Rain = 0
KVA1 260838Z 21008KT 20/09 A3002 RMK A01 T02040086  RH  047%=      5-min Rain = 0
KVA1 260839Z 21007KT 20/09 A3002 RMK A01 T02040087  RH  047%=      5-min Rain = 0
KVA1 260840Z 21007KT 20/09 A3002 RMK A01 T02040086  RH  047%=      5-min Rain = 0
KVA1 260841Z 21007KT 20/09 A3002 RMK A01 T02040087  RH  047%=      5-min Rain = 0
KVA1 260842Z 21007KT 20/09 A3002 RMK A01 T02040087  RH  047%=      5-min Rain = 0
KVA1 260843Z 21007KT 20/09 A3002 RMK A01 T02040087  RH  047%=      5-min Rain = 0
KVA1 260844Z 21007KT 20/09 A3002 RMK A01 T02040087  RH  047%=      5-min Rain = 0
KVA1 260845Z 21007KT 20/09 A3002 RMK A01 T02040087  RH  047%=      5-min Rain = 0
KVA1 260846Z 21008KT 20/09 A3002 RMK A01 T02040087  RH  047%=      5-min Rain = 0
KVA1 260847Z 20008KT 20/09 A3002 RMK A01 T02040087  RH  047%=      5-min Rain = 0
KVA1 260848Z 20008KT 20/09 A3002 RMK A01 T02040087  RH  047%=      5-min Rain = 0
KVA1 260849Z 20008KT 20/09 A3001 RMK A01 T02040087  RH  047%=      5-min Rain = 0
KVA1 260850Z 20008KT 20/09 A3001 RMK A01 T02040087  RH  047%=      5-min Rain = 0
KVA1 260851Z 20007KT 20/09 A3001 RMK A01 T02040087  RH  047%=      5-min Rain = 0
KVA1 260852Z 20007KT 20/09 A3001 RMK A01 T02030087  RH  047%=      5-min Rain = 0
KVA1 260853Z 20007KT 20/09 A3001 RMK A01 T02020087  RH  047%=      5-min Rain = 0
KVA1 260854Z 20008KT 20/09 A3001 RMK A01 T02020086  RH  047%=      5-min Rain = 0
KVA1 260855Z 20008KT 20/09 A3001 RMK A01 T02010086  RH  048%=      5-min Rain = 0
KVA1 260856Z 21008KT 20/09 A3001 RMK A01 T02010086  RH  048%=      5-min Rain = 0
KVA1 260857Z 20008KT 20/09 A3001 RMK A01 T02000086  RH  048%=      5-min Rain = 0
KVA1 260858Z 20007KT 20/09 A3001 RMK A01 T02000086  RH  048%=      5-min Rain = 0
KVA1 260859Z 20008KT 20/09 A3001 RMK A01 T01990086  RH  048%=      5-min Rain = 0
KVA1 260900Z 20008KT 20/09 A3001 RMK A01 T01990086  RH  048%=      5-min Rain = 0
KVA1 260901Z 21008KT 20/09 A3001 RMK A01 T01990086  RH  048%=      5-min Rain = 0
KVA1 260902Z 21008KT 20/09 A3001 RMK A01 T01990086  RH  048%=      5-min Rain = 0
KVA1 260903Z 21008KT 20/09 A3001 RMK A01 T01990086  RH  048%=      5-min Rain = 0
KVA1 260904Z 21008KT 20/09 A3001 RMK A01 T01990086  RH  048%=      5-min Rain = 0
KVA1 260905Z 21008KT 20/09 A3001 RMK A01 T01980085  RH  048%=      5-min Rain = 0
KVA1 260906Z 21008KT 20/09 A3001 RMK A01 T01980086  RH  048%=      5-min Rain = 0
KVA1 260907Z 21008KT 20/09 A3001 RMK A01 T01980086  RH  048%=      5-min Rain = 0
KVA1 260908Z 21007KT 20/09 A3001 RMK A01 T01980086  RH  048%=      5-min Rain = 0
KVA1 260909Z 21008KT 20/09 A3001 RMK A01 T01970086  RH  049%=      5-min Rain = 0
KVA1 260910Z 21008KT 20/09 A3001 RMK A01 T01970086  RH  049%=      5-min Rain = 0
KVA1 260911Z 21008KT 20/09 A3001 RMK A01 T01970087  RH  049%=      5-min Rain = 0
KVA1 260912Z 22008KT 20/09 A3001 RMK A01 T01960087  RH  049%=      5-min Rain = 0
KVA1 260913Z 21008KT 20/09 A3001 RMK A01 T01960087  RH  049%=      5-min Rain = 0
KVA1 260914Z 21008KT 20/09 A3001 RMK A01 T01950087  RH  049%=      5-min Rain = 0
KVA1 260915Z 22008KT 20/09 A3001 RMK A01 T01950087  RH  049%=      5-min Rain = 0
KVA1 260916Z 22008KT 20/09 A3001 RMK A01 T01950087  RH  050%=      5-min Rain = 0
KVA1 260917Z 22009KT 19/09 A3001 RMK A01 T01940087  RH  050%=      5-min Rain = 0
KVA1 260918Z 22010KT 19/09 A3001 RMK A01 T01940087  RH  050%=      5-min Rain = 0
KVA1 260919Z 23009KT 19/09 A3001 RMK A01 T01940087  RH  050%=      5-min Rain = 0
KVA1 260920Z 23009KT 19/09 A3001 RMK A01 T01930087  RH  050%=      5-min Rain = 0
KVA1 260921Z 23009KT 19/09 A3001 RMK A01 T01930087  RH  050%=      5-min Rain = 0
KVA1 260922Z 23008KT 19/09 A3001 RMK A01 T01930087  RH  050%=      5-min Rain = 0
KVA1 260923Z 22008KT 19/09 A3001 RMK A01 T01930087  RH  050%=      5-min Rain = 0
KVA1 260924Z 22009KT 19/09 A3001 RMK A01 T01930087  RH  050%=      5-min Rain = 0
KVA1 260925Z 21009KT 19/09 A3001 RMK A01 T01930087  RH  050%=      5-min Rain = 0
KVA1 260926Z 21008KT 19/09 A3001 RMK A01 T01930087  RH  050%=      5-min Rain = 0
KVA1 260927Z 21008KT 19/09 A3001 RMK A01 T01930087  RH  050%=      5-min Rain = 0
KVA1 260928Z 21008KT 19/09 A3001 RMK A01 T01930087  RH  050%=      5-min Rain = 0
KVA1 260929Z 22008KT 19/09 A3001 RMK A01 T01930087  RH  050%=      5-min Rain = 0
KVA1 260930Z 22008KT 19/09 A3001 RMK A01 T01930087  RH  050%=      5-min Rain = 0
KVA1 260931Z 22009KT 19/09 A3001 RMK A01 T01930087  RH  050%=      5-min Rain = 0
KVA1 260932Z 22009KT 19/09 A3001 RMK A01 T01920087  RH  050%=      5-min Rain = 0
KVA1 260933Z 22008KT 19/09 A3001 RMK A01 T01920087  RH  050%=      5-min Rain = 0
KVA1 260934Z 22008KT 19/09 A3001 RMK A01 T01920087  RH  050%=      5-min Rain = 0
KVA1 260935Z 22009KT 19/09 A3001 RMK A01 T01910087  RH  051%=      5-min Rain = 0
KVA1 260936Z 22008KT 19/09 A3001 RMK A01 T01910087  RH  051%=      5-min Rain = 0
KVA1 260937Z 21009KT 19/09 A3001 RMK A01 T01910087  RH  051%=      5-min Rain = 0
KVA1 260938Z 22009KT 19/09 A3001 RMK A01 T01900087  RH  051%=      5-min Rain = 0
KVA1 260939Z 22008KT 19/09 A3001 RMK A01 T01900087  RH  051%=      5-min Rain = 0
KVA1 260940Z 21007KT 19/09 A3001 RMK A01 T01890087  RH  051%=      5-min Rain = 0
KVA1 260941Z 22009KT 19/09 A3001 RMK A01 T01890087  RH  051%=      5-min Rain = 0
KVA1 260942Z 21008KT 19/09 A3001 RMK A01 T01880086  RH  052%=      5-min Rain = 0
KVA1 260943Z 21008KT 19/09 A3001 RMK A01 T01880087  RH  052%=      5-min Rain = 0
KVA1 260944Z 21008KT 19/09 A3001 RMK A01 T01870087  RH  052%=      5-min Rain = 0
KVA1 260945Z 21008KT 19/09 A3001 RMK A01 T01870086  RH  052%=      5-min Rain = 0
KVA1 260946Z 21008KT 19/09 A3001 RMK A01 T01860086  RH  052%=      5-min Rain = 0
KVA1 260947Z 21008KT 19/09 A3001 RMK A01 T01860086  RH  052%=      5-min Rain = 0
KVA1 260948Z 21009KT 19/09 A3001 RMK A01 T01850086  RH  052%=      5-min Rain = 0
KVA1 260949Z 21008KT 19/09 A3001 RMK A01 T01850086  RH  053%=      5-min Rain = 0
KVA1 260950Z 21008KT 19/09 A3001 RMK A01 T01850086  RH  053%=      5-min Rain = 0
KVA1 260951Z 20008KT 19/09 A3001 RMK A01 T01850086  RH  052%=      5-min Rain = 0
KVA1 260952Z 20008KT 18/09 A3001 RMK A01 T01840086  RH  053%=      5-min Rain = 0
KVA1 260953Z 21007KT 18/09 A3001 RMK A01 T01840085  RH  053%=      5-min Rain = 0
KVA1 260954Z 21007KT 18/09 A3001 RMK A01 T01840085  RH  053%=      5-min Rain = 0
KVA1 260955Z 21007KT 18/09 A3001 RMK A01 T01830085  RH  053%=      5-min Rain = 0
KVA1 260956Z 21008KT 18/09 A3001 RMK A01 T01830085  RH  053%=      5-min Rain = 0
KVA1 260957Z 21008KT 18/09 A3001 RMK A01 T01830085  RH  053%=      5-min Rain = 0
KVA1 260958Z 20008KT 18/09 A3001 RMK A01 T01830086  RH  053%=      5-min Rain = 0
KVA1 260959Z 20009KT 18/09 A3001 RMK A01 T01830085  RH  053%=      5-min Rain = 0
KVA1 261000Z 20008KT 18/09 A3001 RMK A01 T01830085  RH  053%=      5-min Rain = 0
KVA1 261001Z 21008KT 18/09 A3001 RMK A01 T01830085  RH  053%=      5-min Rain = 0
KVA1 261002Z 21007KT 18/09 A3002 RMK A01 T01830085  RH  053%=      5-min Rain = 0
KVA1 261003Z 21007KT 18/09 A3002 RMK A01 T01830085  RH  053%=      5-min Rain = 0
KVA1 261004Z 21006KT 18/09 A3002 RMK A01 T01830085  RH  053%=      5-min Rain = 0
KVA1 261005Z 22006KT 18/09 A3002 RMK A01 T01820085  RH  053%=      5-min Rain = 0
KVA1 261006Z 21006KT 18/09 A3002 RMK A01 T01820085  RH  053%=      5-min Rain = 0
KVA1 261007Z 21006KT 18/09 A3002 RMK A01 T01810085  RH  053%=      5-min Rain = 0
KVA1 261008Z 21006KT 18/09 A3002 RMK A01 T01800085  RH  054%=      5-min Rain = 0
KVA1 261009Z 20006KT 18/09 A3002 RMK A01 T01800085  RH  054%=      5-min Rain = 0
KVA1 261010Z 20006KT 18/09 A3002 RMK A01 T01800086  RH  054%=      5-min Rain = 0
KVA1 261011Z 19006KT 18/09 A3002 RMK A01 T01800086  RH  054%=      5-min Rain = 0
KVA1 261012Z 20005KT 18/09 A3002 RMK A01 T01800086  RH  054%=      5-min Rain = 0
KVA1 261013Z 20006KT 18/09 A3002 RMK A01 T01800085  RH  054%=      5-min Rain = 0
KVA1 261014Z 20005KT 18/09 A3002 RMK A01 T01800086  RH  054%=      5-min Rain = 0
KVA1 261015Z 20005KT 18/09 A3002 RMK A01 T01790086  RH  054%=      5-min Rain = 0
KVA1 261016Z 20005KT 18/09 A3002 RMK A01 T01790086  RH  054%=      5-min Rain = 0
KVA1 261017Z 20005KT 18/09 A3002 RMK A01 T01780086  RH  054%=      5-min Rain = 0
KVA1 261018Z 20005KT 18/09 A3002 RMK A01 T01780086  RH  055%=      5-min Rain = 0
KVA1 261019Z 21005KT 18/09 A3002 RMK A01 T01780086  RH  055%=      5-min Rain = 0
KVA1 261020Z 20006KT 18/09 A3002 RMK A01 T01780086  RH  055%=      5-min Rain = 0
KVA1 261021Z 20004KT 18/09 A3002 RMK A01 T01770086  RH  055%=      5-min Rain = 0
KVA1 261022Z 18003KT 18/09 A3002 RMK A01 T01770085  RH  055%=      5-min Rain = 0
KVA1 261023Z 16003KT 18/09 A3002 RMK A01 T01770086  RH  055%=      5-min Rain = 0
KVA1 261024Z 18004KT 18/09 A3002 RMK A01 T01760085  RH  055%=      5-min Rain = 0
KVA1 261025Z 19004KT 18/09 A3002 RMK A01 T01760085  RH  055%=      5-min Rain = 0
KVA1 261026Z 20004KT 18/09 A3002 RMK A01 T01750086  RH  056%=      5-min Rain = 0
KVA1 261027Z 19005KT 18/09 A3002 RMK A01 T01750085  RH  055%=      5-min Rain = 0
KVA1 261028Z 18006KT 18/09 A3002 RMK A01 T01760086  RH  055%=      5-min Rain = 0
KVA1 261029Z 19006KT 18/09 A3002 RMK A01 T01760085  RH  055%=      5-min Rain = 0
KVA1 261030Z 19006KT 18/09 A3002 RMK A01 T01760086  RH  055%=      5-min Rain = 0
KVA1 261031Z 19006KT 18/09 A3002 RMK A01 T01770086  RH  055%=      5-min Rain = 0
KVA1 261032Z 19006KT 18/09 A3002 RMK A01 T01770086  RH  055%=      5-min Rain = 0
KVA1 261033Z 20007KT 18/09 A3002 RMK A01 T01770086  RH  055%=      5-min Rain = 0
KVA1 261034Z 20007KT 18/09 A3002 RMK A01 T01770086  RH  055%=      5-min Rain = 0
KVA1 261035Z 20007KT 18/09 A3002 RMK A01 T01770086  RH  055%=      5-min Rain = 0
KVA1 261036Z 20007KT 18/09 A3002 RMK A01 T01760086  RH  056%=      5-min Rain = 0
KVA1 261037Z 20007KT 18/09 A3002 RMK A01 T01770087  RH  055%=      5-min Rain = 0
KVA1 261038Z 21006KT 18/09 A3002 RMK A01 T01780087  RH  055%=      5-min Rain = 0
KVA1 261039Z 22006KT 18/09 A3002 RMK A01 T01780086  RH  055%=      5-min Rain = 0
KVA1 261040Z 22006KT 18/09 A3002 RMK A01 T01770086  RH  055%=      5-min Rain = 0
KVA1 261041Z 22006KT 18/09 A3002 RMK A01 T01770086  RH  055%=      5-min Rain = 0
KVA1 261042Z 23006KT 18/09 A3002 RMK A01 T01750085  RH  055%=      5-min Rain = 0
KVA1 261043Z 23006KT 18/09 A3002 RMK A01 T01750085  RH  056%=      5-min Rain = 0
KVA1 261044Z 23007KT 17/09 A3002 RMK A01 T01730085  RH  056%=      5-min Rain = 0
KVA1 261045Z 23007KT 17/09 A3002 RMK A01 T01720085  RH  056%=      5-min Rain = 0
KVA1 261046Z 23007KT 17/09 A3002 RMK A01 T01730086  RH  057%=      5-min Rain = 0
KVA1 261047Z 22008KT 17/09 A3002 RMK A01 T01730086  RH  057%=      5-min Rain = 0
KVA1 261048Z 22008KT 17/09 A3002 RMK A01 T01730086  RH  057%=      5-min Rain = 0
KVA1 261049Z 22008KT 17/09 A3002 RMK A01 T01740086  RH  056%=      5-min Rain = 0
KVA1 261050Z 22008KT 17/09 A3002 RMK A01 T01740086  RH  056%=      5-min Rain = 0
KVA1 261051Z 22008KT 18/09 A3002 RMK A01 T01750086  RH  056%=      5-min Rain = 0
KVA1 261052Z 22008KT 18/09 A3002 RMK A01 T01750086  RH  056%=      5-min Rain = 0
KVA1 261053Z 23007KT 18/09 A3002 RMK A01 T01750086  RH  056%=      5-min Rain = 0
KVA1 261054Z 23007KT 17/09 A3002 RMK A01 T01740085  RH  056%=      5-min Rain = 0
KVA1 261055Z 23008KT 17/09 A3002 RMK A01 T01730085  RH  056%=      5-min Rain = 0
KVA1 261056Z 23007KT 17/09 A3002 RMK A01 T01730086  RH  057%=      5-min Rain = 0
KVA1 261057Z 23007KT 17/09 A3002 RMK A01 T01730086  RH  057%=      5-min Rain = 0
KVA1 261058Z 23007KT 17/09 A3002 RMK A01 T01730086  RH  057%=      5-min Rain = 0
KVA1 261059Z 23007KT 17/09 A3002 RMK A01 T01740087  RH  057%=      5-min Rain = 0
KVA1 261100Z 23007KT 17/09 A3002 RMK A01 T01740087  RH  056%=      5-min Rain = 0
KVA1 261101Z 23007KT 17/09 A3002 RMK A01 T01740087  RH  056%=      5-min Rain = 0
KVA1 261102Z 23007KT 17/09 A3002 RMK A01 T01740087  RH  056%=      5-min Rain = 0
KVA1 261103Z 23008KT 17/09 A3002 RMK A01 T01740087  RH  057%=      5-min Rain = 0
KVA1 261104Z 24007KT 17/09 A3002 RMK A01 T01740087  RH  057%=      5-min Rain = 0
KVA1 261105Z 23007KT 17/09 A3002 RMK A01 T01740087  RH  057%=      5-min Rain = 0
KVA1 261106Z 23007KT 17/09 A3002 RMK A01 T01740088  RH  057%=      5-min Rain = 0
KVA1 261107Z 23008KT 18/09 A3002 RMK A01 T01750088  RH  057%=      5-min Rain = 0
KVA1 261108Z 23007KT 18/09 A3002 RMK A01 T01760089  RH  057%=      5-min Rain = 0
KVA1 261109Z 23007KT 18/09 A3002 RMK A01 T01760089  RH  056%=      5-min Rain = 0
KVA1 261110Z 23008KT 18/09 A3002 RMK A01 T01760088  RH  056%=      5-min Rain = 0
KVA1 261111Z 23008KT 18/09 A3002 RMK A01 T01770089  RH  056%=      5-min Rain = 0
KVA1 261112Z 23008KT 18/09 A3002 RMK A01 T01770089  RH  056%=      5-min Rain = 0
KVA1 261113Z 23008KT 18/09 A3002 RMK A01 T01770089  RH  056%=      5-min Rain = 0
KVA1 261114Z 23008KT 18/09 A3002 RMK A01 T01770088  RH  056%=      5-min Rain = 0
KVA1 261115Z 23007KT 18/09 A3002 RMK A01 T01780089  RH  056%=      5-min Rain = 0
KVA1 261116Z 24007KT 18/09 A3002 RMK A01 T01780088  RH  056%=      5-min Rain = 0
KVA1 261117Z 23007KT 18/09 A3002 RMK A01 T01790088  RH  055%=      5-min Rain = 0
KVA1 261118Z 23007KT 18/09 A3002 RMK A01 T01790088  RH  055%=      5-min Rain = 0
KVA1 261119Z 23008KT 18/09 A3002 RMK A01 T01790088  RH  055%=      5-min Rain = 0
KVA1 261120Z 23008KT 18/09 A3002 RMK A01 T01790088  RH  055%=      5-min Rain = 0
KVA1 261121Z 23008KT 18/09 A3002 RMK A01 T01800089  RH  055%=      5-min Rain = 0
KVA1 261122Z 23007KT 18/09 A3002 RMK A01 T01800088  RH  055%=      5-min Rain = 0
KVA1 261123Z 24008KT 18/09 A3002 RMK A01 T01790088  RH  055%=      5-min Rain = 0
KVA1 261124Z 24006KT 18/09 A3002 RMK A01 T01790087  RH  055%=      5-min Rain = 0
KVA1 261125Z 24006KT 18/09 A3002 RMK A01 T01780087  RH  055%=      5-min Rain = 0
KVA1 261126Z 24006KT 18/09 A3002 RMK A01 T01780088  RH  056%=      5-min Rain = 0
KVA1 261127Z 23006KT 18/09 A3002 RMK A01 T01770087  RH  056%=      5-min Rain = 0
KVA1 261128Z 24007KT 18/09 A3002 RMK A01 T01760087  RH  056%=      5-min Rain = 0
KVA1 261129Z 24006KT 18/09 A3002 RMK A01 T01760087  RH  056%=      5-min Rain = 0
KVA1 261130Z 24006KT 18/09 A3002 RMK A01 T01750087  RH  056%=      5-min Rain = 0
KVA1 261131Z 24007KT 18/09 A3002 RMK A01 T01750087  RH  056%=      5-min Rain = 0
KVA1 261132Z 23006KT 18/09 A3002 RMK A01 T01760087  RH  056%=      5-min Rain = 0
KVA1 261133Z 23006KT 18/09 A3002 RMK A01 T01760087  RH  056%=      5-min Rain = 0
KVA1 261134Z 23006KT 18/09 A3002 RMK A01 T01780087  RH  055%=      5-min Rain = 0
KVA1 261135Z 23008KT 18/09 A3002 RMK A01 T01790087  RH  055%=      5-min Rain = 0
KVA1 261136Z 23007KT 18/09 A3002 RMK A01 T01790086  RH  055%=      5-min Rain = 0
KVA1 261137Z 23006KT 18/09 A3002 RMK A01 T01790086  RH  054%=      5-min Rain = 0
KVA1 261138Z 23006KT 18/09 A3002 RMK A01 T01790086  RH  054%=      5-min Rain = 0
KVA1 261139Z 23008KT 18/09 A3002 RMK A01 T01790086  RH  054%=      5-min Rain = 0
KVA1 261140Z 23009KT 18/09 A3002 RMK A01 T01800086  RH  054%=      5-min Rain = 0
KVA1 261141Z 23008KT 18/09 A3002 RMK A01 T01810086  RH  054%=      5-min Rain = 0
KVA1 261142Z 23008KT 18/09 A3002 RMK A01 T01820086  RH  053%=      5-min Rain = 0
KVA1 261143Z 23008KT 18/09 A3002 RMK A01 T01820085  RH  053%=      5-min Rain = 0
KVA1 261144Z 23007KT 18/09 A3002 RMK A01 T01820085  RH  053%=      5-min Rain = 0
KVA1 261145Z 23008KT 18/09 A3002 RMK A01 T01810085  RH  053%=      5-min Rain = 0
KVA1 261146Z 22008KT 18/09 A3002 RMK A01 T01810085  RH  054%=      5-min Rain = 0
KVA1 261147Z 23009KT 18/09 A3002 RMK A01 T01800085  RH  054%=      5-min Rain = 0
KVA1 261148Z 23008KT 18/09 A3002 RMK A01 T01810086  RH  054%=      5-min Rain = 0
KVA1 261149Z 23009KT 18/09 A3001 RMK A01 T01800085  RH  054%=      5-min Rain = 0
KVA1 261150Z 23009KT 18/09 A3001 RMK A01 T01800085  RH  054%=      5-min Rain = 0
KVA1 261151Z 22009KT 18/09 A3001 RMK A01 T01800085  RH  054%=      5-min Rain = 0
KVA1 261152Z 22011KT 18/08 A3001 RMK A01 T01800084  RH  053%=      5-min Rain = 0
KVA1 261153Z 23010KT 18/08 A3001 RMK A01 T01800084  RH  053%=      5-min Rain = 0
KVA1 261154Z 22009KT 18/08 A3001 RMK A01 T01810084  RH  053%=      5-min Rain = 0
KVA1 261155Z 22010KT 18/09 A3001 RMK A01 T01810085  RH  053%=      5-min Rain = 0
KVA1 261156Z 22010KT 18/09 A3001 RMK A01 T01810085  RH  053%=      5-min Rain = 0
KVA1 261157Z 22010KT 18/09 A3001 RMK A01 T01810085  RH  053%=      5-min Rain = 0
KVA1 261158Z 23010KT 18/09 A3001 RMK A01 T01810085  RH  053%=      5-min Rain = 0
KVA1 261159Z 23011KT 18/08 A3001 RMK A01 T01810084  RH  053%=      5-min Rain = 0
KVA1 261200Z 23010KT 18/08 A3002 RMK A01 T01810083  RH  053%=      5-min Rain = 0
KVA1 261201Z 22012KT 18/08 A3002 RMK A01 T01810083  RH  053%=      5-min Rain = 0
KVA1 261202Z 22011KT 18/08 A3002 RMK A01 T01820083  RH  053%=      5-min Rain = 0
KVA1 261203Z 22009KT 18/08 A3002 RMK A01 T01830083  RH  052%=      5-min Rain = 0
KVA1 261204Z 23009KT 18/08 A3002 RMK A01 T01840083  RH  052%=      5-min Rain = 0
KVA1 261205Z 23009KT 18/08 A3002 RMK A01 T01830082  RH  052%=      5-min Rain = 0
KVA1 261206Z 23008KT 18/08 A3002 RMK A01 T01820081  RH  052%=      5-min Rain = 0
KVA1 261207Z 23008KT 18/08 A3002 RMK A01 T01810080  RH  052%=      5-min Rain = 0
KVA1 261208Z 23009KT 18/08 A3002 RMK A01 T01800080  RH  052%=      5-min Rain = 0
KVA1 261209Z 23009KT 18/08 A3002 RMK A01 T01790080  RH  052%=      5-min Rain = 0
KVA1 261210Z 23008KT 18/08 A3002 RMK A01 T01790080  RH  052%=      5-min Rain = 0
KVA1 261211Z 23008KT 18/08 A3002 RMK A01 T01780080  RH  052%=      5-min Rain = 0
KVA1 261212Z 23008KT 18/08 A3002 RMK A01 T01780080  RH  052%=      5-min Rain = 0
KVA1 261213Z 23008KT 18/08 A3002 RMK A01 T01780079  RH  052%=      5-min Rain = 0
KVA1 261214Z 23008KT 18/08 A3002 RMK A01 T01770079  RH  052%=      5-min Rain = 0
KVA1 261215Z 23007KT 18/08 A3002 RMK A01 T01770078  RH  052%=      5-min Rain = 0
KVA1 261216Z 23009KT 18/08 A3002 RMK A01 T01760077  RH  052%=      5-min Rain = 0
KVA1 261217Z 23009KT 18/08 A3002 RMK A01 T01760077  RH  052%=      5-min Rain = 0
KVA1 261218Z 23009KT 18/08 A3002 RMK A01 T01760076  RH  052%=      5-min Rain = 0
KVA1 261219Z 23008KT 18/08 A3002 RMK A01 T01770075  RH  051%=      5-min Rain = 0
KVA1 261220Z 23009KT 18/07 A3002 RMK A01 T01770073  RH  051%=      5-min Rain = 0
KVA1 261221Z 22008KT 18/07 A3002 RMK A01 T01770072  RH  050%=      5-min Rain = 0
KVA1 261222Z 23008KT 18/07 A3002 RMK A01 T01770072  RH  050%=      5-min Rain = 0
KVA1 261223Z 23008KT 18/07 A3002 RMK A01 T01770071  RH  050%=      5-min Rain = 0
KVA1 261224Z 23009KT 18/07 A3002 RMK A01 T01770070  RH  050%=      5-min Rain = 0
KVA1 261225Z 23008KT 18/07 A3002 RMK A01 T01770070  RH  049%=      5-min Rain = 0
KVA1 261226Z 22009KT 18/07 A3002 RMK A01 T01780069  RH  049%=      5-min Rain = 0
KVA1 261227Z 23010KT 18/07 A3002 RMK A01 T01770066  RH  048%=      5-min Rain = 0
KVA1 261228Z 23009KT 18/06 A3002 RMK A01 T01780064  RH  047%=      5-min Rain = 0
KVA1 261229Z 22009KT 18/06 A3002 RMK A01 T01780062  RH  046%=      5-min Rain = 0
KVA1 261230Z 22010KT 18/06 A3002 RMK A01 T01780061  RH  046%=      5-min Rain = 0
KVA1 261231Z 23009KT 18/06 A3002 RMK A01 T01780062  RH  046%=      5-min Rain = 0
KVA1 261232Z 22009KT 18/06 A3002 RMK A01 T01780059  RH  045%=      5-min Rain = 0
KVA1 261233Z 23009KT 18/06 A3002 RMK A01 T01780057  RH  045%=      5-min Rain = 0
KVA1 261234Z 22009KT 18/06 A3002 RMK A01 T01790056  RH  045%=      5-min Rain = 0
KVA1 261235Z 23008KT 18/05 A3002 RMK A01 T01780054  RH  044%=      5-min Rain = 0
KVA1 261236Z 23008KT 18/05 A3002 RMK A01 T01770054  RH  044%=      5-min Rain = 0
KVA1 261237Z 23008KT 18/05 A3002 RMK A01 T01760054  RH  044%=      5-min Rain = 0
KVA1 261238Z 22008KT 18/06 A3002 RMK A01 T01760056  RH  045%=      5-min Rain = 0
KVA1 261239Z 22009KT 18/06 A3002 RMK A01 T01760058  RH  046%=      5-min Rain = 0
KVA1 261240Z 22008KT 18/06 A3002 RMK A01 T01760059  RH  046%=      5-min Rain = 0
KVA1 261241Z 22008KT 18/06 A3002 RMK A01 T01760060  RH  046%=      5-min Rain = 0
KVA1 261242Z 22009KT 18/06 A3002 RMK A01 T01770061  RH  046%=      5-min Rain = 0
KVA1 261243Z 22009KT 18/06 A3002 RMK A01 T01770061  RH  047%=      5-min Rain = 0
KVA1 261244Z 22008KT 18/06 A3002 RMK A01 T01760061  RH  047%=      5-min Rain = 0
KVA1 261245Z 22009KT 18/06 A3002 RMK A01 T01770062  RH  047%=      5-min Rain = 0
KVA1 261246Z 22009KT 18/06 A3002 RMK A01 T01770064  RH  047%=      5-min Rain = 0
KVA1 261247Z 22010KT 18/07 A3002 RMK A01 T01770065  RH  048%=      5-min Rain = 0
KVA1 261248Z 22009KT 18/07 A3002 RMK A01 T01770066  RH  048%=      5-min Rain = 0
KVA1 261249Z 22009KT 18/07 A3002 RMK A01 T01770065  RH  048%=      5-min Rain = 0
KVA1 261250Z 22008KT 18/07 A3002 RMK A01 T01770065  RH  048%=      5-min Rain = 0
KVA1 261251Z 23008KT 18/07 A3002 RMK A01 T01770065  RH  048%=      5-min Rain = 0
KVA1 261252Z 22009KT 18/07 A3002 RMK A01 T01770065  RH  048%=      5-min Rain = 0
KVA1 261253Z 22009KT 18/07 A3002 RMK A01 T01770065  RH  048%=      5-min Rain = 0
KVA1 261254Z 22009KT 18/07 A3002 RMK A01 T01760065  RH  048%=      5-min Rain = 0
KVA1 261255Z 22008KT 18/07 A3002 RMK A01 T01760065  RH  048%=      5-min Rain = 0
KVA1 261256Z 22009KT 18/07 A3002 RMK A01 T01760065  RH  048%=      5-min Rain = 0
KVA1 261257Z 22009KT 18/07 A3002 RMK A01 T01760066  RH  048%=      5-min Rain = 0
KVA1 261258Z 22009KT 18/07 A3002 RMK A01 T01760066  RH  049%=      5-min Rain = 0
KVA1 261259Z 22009KT 18/07 A3002 RMK A01 T01760066  RH  049%=      5-min Rain = 0
KVA1 261300Z 22009KT 18/07 A3002 RMK A01 T01750067  RH  049%=      5-min Rain = 0
KVA1 261301Z 22009KT 18/07 A3002 RMK A01 T01750067  RH  049%=      5-min Rain = 0
KVA1 261302Z 22009KT 18/07 A3002 RMK A01 T01750068  RH  049%=      5-min Rain = 0
KVA1 261303Z 22009KT 18/07 A3002 RMK A01 T01750068  RH  049%=      5-min Rain = 0
KVA1 261304Z 22009KT 18/07 A3002 RMK A01 T01760069  RH  049%=      5-min Rain = 0
KVA1 261305Z 22009KT 18/07 A3002 RMK A01 T01760068  RH  049%=      5-min Rain = 0
KVA1 261306Z 22008KT 18/07 A3002 RMK A01 T01760068  RH  049%=      5-min Rain = 0
KVA1 261307Z 22008KT 18/07 A3002 RMK A01 T01760068  RH  049%=      5-min Rain = 0
KVA1 261308Z 22009KT 18/07 A3002 RMK A01 T01760068  RH  049%=      5-min Rain = 0
KVA1 261309Z 22008KT 18/07 A3002 RMK A01 T01770068  RH  049%=      5-min Rain = 0
KVA1 261310Z 22008KT 18/07 A3002 RMK A01 T01760067  RH  049%=      5-min Rain = 0
KVA1 261311Z 22007KT 18/07 A3002 RMK A01 T01770068  RH  049%=      5-min Rain = 0
KVA1 261312Z 22007KT 18/07 A3002 RMK A01 T01770068  RH  049%=      5-min Rain = 0
KVA1 261313Z 22008KT 18/07 A3002 RMK A01 T01770068  RH  049%=      5-min Rain = 0
KVA1 261314Z 22008KT 18/07 A3002 RMK A01 T01770069  RH  049%=      5-min Rain = 0
KVA1 261315Z 22008KT 18/07 A3002 RMK A01 T01770068  RH  049%=      5-min Rain = 0
KVA1 261316Z 22008KT 18/07 A3002 RMK A01 T01770068  RH  049%=      5-min Rain = 0
KVA1 261317Z 22008KT 18/07 A3002 RMK A01 T01770068  RH  049%=      5-min Rain = 0
KVA1 261318Z 22008KT 18/07 A3002 RMK A01 T01780067  RH  048%=      5-min Rain = 0
KVA1 261319Z 22008KT 18/07 A3002 RMK A01 T01780067  RH  048%=      5-min Rain = 0
KVA1 261320Z 22008KT 18/07 A3003 RMK A01 T01780066  RH  048%=      5-min Rain = 0
KVA1 261321Z 22007KT 18/07 A3003 RMK A01 T01790067  RH  048%=      5-min Rain = 0
KVA1 261322Z 22007KT 18/07 A3003 RMK A01 T01790067  RH  048%=      5-min Rain = 0
KVA1 261323Z 22007KT 18/07 A3003 RMK A01 T01790066  RH  048%=      5-min Rain = 0
KVA1 261324Z 22007KT 18/07 A3003 RMK A01 T01790065  RH  047%=      5-min Rain = 0
KVA1 261325Z 22008KT 18/07 A3003 RMK A01 T01790065  RH  047%=      5-min Rain = 0
KVA1 261326Z 22007KT 18/07 A3003 RMK A01 T01790065  RH  047%=      5-min Rain = 0
KVA1 261327Z 22007KT 18/07 A3003 RMK A01 T01790065  RH  047%=      5-min Rain = 0
KVA1 261328Z 22007KT 18/06 A3003 RMK A01 T01790064  RH  047%=      5-min Rain = 0
KVA1 261329Z 22007KT 18/06 A3003 RMK A01 T01790063  RH  047%=      5-min Rain = 0
KVA1 261330Z 22007KT 18/06 A3003 RMK A01 T01790062  RH  046%=      5-min Rain = 0
KVA1 261331Z 22007KT 18/06 A3003 RMK A01 T01790062  RH  046%=      5-min Rain = 0
KVA1 261332Z 22007KT 18/06 A3003 RMK A01 T01800062  RH  046%=      5-min Rain = 0
KVA1 261333Z 22008KT 18/06 A3003 RMK A01 T01800062  RH  046%=      5-min Rain = 0
KVA1 261334Z 22008KT 18/06 A3003 RMK A01 T01810063  RH  046%=      5-min Rain = 0
KVA1 261335Z 22008KT 18/06 A3003 RMK A01 T01810063  RH  046%=      5-min Rain = 0
KVA1 261336Z 22008KT 18/06 A3003 RMK A01 T01810063  RH  046%=      5-min Rain = 0
KVA1 261337Z 22007KT 18/06 A3003 RMK A01 T01810063  RH  046%=      5-min Rain = 0
KVA1 261338Z 22007KT 18/06 A3003 RMK A01 T01810063  RH  046%=      5-min Rain = 0
KVA1 261339Z 22007KT 18/06 A3003 RMK A01 T01810063  RH  046%=      5-min Rain = 0
KVA1 261340Z 22007KT 18/06 A3003 RMK A01 T01810062  RH  046%=      5-min Rain = 0
KVA1 261341Z 21007KT 18/06 A3003 RMK A01 T01810062  RH  046%=      5-min Rain = 0
KVA1 261342Z 21008KT 18/06 A3003 RMK A01 T01810062  RH  045%=      5-min Rain = 0
KVA1 261343Z 22008KT 18/06 A3003 RMK A01 T01820062  RH  045%=      5-min Rain = 0
KVA1 261344Z 22008KT 18/06 A3003 RMK A01 T01830063  RH  045%=      5-min Rain = 0
KVA1 261345Z 22008KT 18/06 A3003 RMK A01 T01830063  RH  045%=      5-min Rain = 0
KVA1 261346Z 22007KT 18/06 A3003 RMK A01 T01830063  RH  045%=      5-min Rain = 0
KVA1 261347Z 22007KT 18/06 A3003 RMK A01 T01840062  RH  045%=      5-min Rain = 0
KVA1 261348Z 22008KT 18/06 A3003 RMK A01 T01840062  RH  045%=      5-min Rain = 0
KVA1 261349Z 22007KT 18/06 A3003 RMK A01 T01840062  RH  045%=      5-min Rain = 0
KVA1 261350Z 22008KT 19/06 A3003 RMK A01 T01850062  RH  044%=      5-min Rain = 0
KVA1 261351Z 22008KT 19/06 A3003 RMK A01 T01860062  RH  044%=      5-min Rain = 0
KVA1 261352Z 22008KT 19/06 A3003 RMK A01 T01870062  RH  044%=      5-min Rain = 0
KVA1 261353Z 22008KT 19/06 A3003 RMK A01 T01880062  RH  044%=      5-min Rain = 0
KVA1 261354Z 23007KT 19/06 A3003 RMK A01 T01890062  RH  043%=      5-min Rain = 0
KVA1 261355Z 22007KT 19/06 A3003 RMK A01 T01900062  RH  043%=      5-min Rain = 0
KVA1 261356Z 22008KT 19/06 A3003 RMK A01 T01910062  RH  043%=      5-min Rain = 0
KVA1 261357Z 22007KT 19/06 A3003 RMK A01 T01910063  RH  043%=      5-min Rain = 0
KVA1 261358Z 22007KT 19/06 A3003 RMK A01 T01920062  RH  043%=      5-min Rain = 0
KVA1 261359Z 22007KT 19/06 A3003 RMK A01 T01920062  RH  042%=      5-min Rain = 0
KVA1 261400Z 22006KT 19/06 A3003 RMK A01 T01930062  RH  042%=      5-min Rain = 0
KVA1 261401Z 22007KT 19/06 A3003 RMK A01 T01940061  RH  042%=      5-min Rain = 0
KVA1 261402Z 22008KT 20/06 A3003 RMK A01 T01950060  RH  041%=      5-min Rain = 0
KVA1 261403Z 22007KT 20/06 A3003 RMK A01 T01950059  RH  041%=      5-min Rain = 0
KVA1 261404Z 22007KT 20/06 A3003 RMK A01 T01960060  RH  041%=      5-min Rain = 0
KVA1 261405Z 22007KT 20/06 A3003 RMK A01 T01970059  RH  040%=      5-min Rain = 0
KVA1 261406Z 22006KT 20/06 A3003 RMK A01 T01980059  RH  040%=      5-min Rain = 0
KVA1 261407Z 22007KT 20/06 A3003 RMK A01 T01990059  RH  040%=      5-min Rain = 0
KVA1 261408Z 22007KT 20/06 A3004 RMK A01 T01990057  RH  040%=      5-min Rain = 0
KVA1 261409Z 21007KT 20/06 A3003 RMK A01 T01990057  RH  039%=      5-min Rain = 0
KVA1 261410Z 21007KT 20/06 A3003 RMK A01 T02000056  RH  039%=      5-min Rain = 0
KVA1 261411Z 21007KT 20/06 A3003 RMK A01 T02010056  RH  039%=      5-min Rain = 0
KVA1 261412Z 21007KT 20/06 A3003 RMK A01 T02020055  RH  038%=      5-min Rain = 0
KVA1 261413Z 21007KT 20/05 A3003 RMK A01 T02030054  RH  038%=      5-min Rain = 0
KVA1 261414Z 21007KT 21/06 A3003 RMK A01 T02050057  RH  038%=      5-min Rain = 0
KVA1 261415Z 22007KT 21/06 A3003 RMK A01 T02060056  RH  038%=      5-min Rain = 0
KVA1 261416Z 21007KT 21/06 A3004 RMK A01 T02070057  RH  037%=      5-min Rain = 0
KVA1 261417Z 22008KT 21/06 A3004 RMK A01 T02090056  RH  037%=      5-min Rain = 0
KVA1 261418Z 21006KT 21/05 A3004 RMK A01 T02090054  RH  036%=      5-min Rain = 0
KVA1 261419Z 21007KT 21/06 A3004 RMK A01 T02100055  RH  036%=      5-min Rain = 0
KVA1 261420Z 21007KT 21/05 A3004 RMK A01 T02100054  RH  036%=      5-min Rain = 0
KVA1 261421Z 20007KT 21/05 A3003 RMK A01 T02110054  RH  036%=      5-min Rain = 0
KVA1 261422Z 21009KT 21/05 A3003 RMK A01 T02110053  RH  036%=      5-min Rain = 0
KVA1 261423Z 20008KT 21/05 A3003 RMK A01 T02110053  RH  035%=      5-min Rain = 0
KVA1 261424Z 21008KT 21/05 A3003 RMK A01 T02110053  RH  036%=      5-min Rain = 0
KVA1 261425Z 21006KT 21/06 A3003 RMK A01 T02120055  RH  036%=      5-min Rain = 0
KVA1 261426Z 21007KT 21/06 A3003 RMK A01 T02130057  RH  036%=      5-min Rain = 0
KVA1 261427Z 21006KT 21/06 A3003 RMK A01 T02140058  RH  036%=      5-min Rain = 0
KVA1 261428Z 21007KT 22/06 A3004 RMK A01 T02150057  RH  036%=      5-min Rain = 0
KVA1 261429Z 21008KT 22/05 A3004 RMK A01 T02150053  RH  035%=      5-min Rain = 0
KVA1 261430Z 21007KT 22/05 A3004 RMK A01 T02160053  RH  035%=      5-min Rain = 0
KVA1 261431Z 21006KT 22/05 A3004 RMK A01 T02160052  RH  034%=      5-min Rain = 0
KVA1 261432Z 21008KT 22/05 A3004 RMK A01 T02180052  RH  034%=      5-min Rain = 0
KVA1 261433Z 21008KT 22/05 A3004 RMK A01 T02190050  RH  033%=      5-min Rain = 0
KVA1 261434Z 21007KT 22/05 A3004 RMK A01 T02210051  RH  033%=      5-min Rain = 0
KVA1 261435Z 21008KT 22/05 A3004 RMK A01 T02220052  RH  033%=      5-min Rain = 0
KVA1 261436Z 21008KT 22/05 A3004 RMK A01 T02230053  RH  033%=      5-min Rain = 0
KVA1 261437Z 21009KT 22/05 A3004 RMK A01 T02240052  RH  033%=      5-min Rain = 0
KVA1 261438Z 21007KT 22/05 A3004 RMK A01 T02240052  RH  033%=      5-min Rain = 0
KVA1 261439Z 20008KT 23/05 A3004 RMK A01 T02250054  RH  033%=      5-min Rain = 0
KVA1 261440Z 20007KT 23/06 A3004 RMK A01 T02260055  RH  033%=      5-min Rain = 0
KVA1 261441Z 21007KT 23/06 A3004 RMK A01 T02270055  RH  033%=      5-min Rain = 0
KVA1 261442Z 20006KT 23/06 A3004 RMK A01 T02280057  RH  033%=      5-min Rain = 0
KVA1 261443Z 20008KT 23/06 A3004 RMK A01 T02290056  RH  033%=      5-min Rain = 0
KVA1 261444Z 20007KT 23/06 A3004 RMK A01 T02300056  RH  032%=      5-min Rain = 0
KVA1 261445Z 20007KT 23/06 A3004 RMK A01 T02320056  RH  032%=      5-min Rain = 0
KVA1 261446Z 20007KT 23/06 A3004 RMK A01 T02320056  RH  032%=      5-min Rain = 0
KVA1 261447Z 20009KT 23/06 A3004 RMK A01 T02330058  RH  032%=      5-min Rain = 0
KVA1 261448Z 20008KT 24/06 A3004 RMK A01 T02350057  RH  032%=      5-min Rain = 0
KVA1 261449Z 20008KT 24/06 A3004 RMK A01 T02350058  RH  032%=      5-min Rain = 0
KVA1 261450Z 20008KT 24/06 A3004 RMK A01 T02360058  RH  032%=      5-min Rain = 0
KVA1 261451Z 20008KT 24/06 A3004 RMK A01 T02370059  RH  032%=      5-min Rain = 0
KVA1 261452Z 20007KT 24/06 A3004 RMK A01 T02370060  RH  032%=      5-min Rain = 0
KVA1 261453Z 20006KT 24/06 A3004 RMK A01 T02380062  RH  032%=      5-min Rain = 0
KVA1 261454Z 21006KT 24/06 A3004 RMK A01 T02400064  RH  032%=      5-min Rain = 0
KVA1 261455Z 20008KT 24/06 A3004 RMK A01 T02410064  RH  032%=      5-min Rain = 0
KVA1 261456Z 20007KT 24/07 A3004 RMK A01 T02420065  RH  032%=      5-min Rain = 0
KVA1 261457Z 20007KT 24/07 A3004 RMK A01 T02420068  RH  033%=      5-min Rain = 0
KVA1 261458Z 20007KT 24/07 A3004 RMK A01 T02440070  RH  033%=      5-min Rain = 0
KVA1 261459Z 20007KT 25/07 A3004 RMK A01 T02450069  RH  032%=      5-min Rain = 0
KVA1 261500Z 20007KT 25/07 A3004 RMK A01 T02470070  RH  032%=      5-min Rain = 0
KVA1 261501Z 20008KT 25/07 A3004 RMK A01 T02480069  RH  032%=      5-min Rain = 0
KVA1 261502Z 20009KT 25/07 A3004 RMK A01 T02490067  RH  031%=      5-min Rain = 0
KVA1 261503Z 20009KT 25/07 A3004 RMK A01 T02490067  RH  031%=      5-min Rain = 0
KVA1 261504Z 21007KT 25/07 A3004 RMK A01 T02490067  RH  031%=      5-min Rain = 0
KVA1 261505Z 20009KT 25/07 A3004 RMK A01 T02510066  RH  031%=      5-min Rain = 0
KVA1 261506Z 21010KT 25/07 A3004 RMK A01 T02510065  RH  030%=      5-min Rain = 0
KVA1 261507Z 20009KT 25/07 A3004 RMK A01 T02510066  RH  031%=      5-min Rain = 0
KVA1 261508Z 20009KT 25/07 A3004 RMK A01 T02520068  RH  031%=      5-min Rain = 0
KVA1 261509Z 21011KT 25/07 A3004 RMK A01 T02520065  RH  030%=      5-min Rain = 0
KVA1 261510Z 21010KT 25/06 A3004 RMK A01 T02530063  RH  030%=      5-min Rain = 0
KVA1 261511Z 20010KT 26/06 A3004 RMK A01 T02550063  RH  029%=      5-min Rain = 0
KVA1 261512Z 20008KT 26/06 A3004 RMK A01 T02550064  RH  029%=      5-min Rain = 0
KVA1 261513Z 20009KT 26/07 A3004 RMK A01 T02560065  RH  030%=      5-min Rain = 0
KVA1 261514Z 20010KT 26/06 A3004 RMK A01 T02570064  RH  029%=      5-min Rain = 0
KVA1 261515Z 20009KT 26/06 A3004 RMK A01 T02570064  RH  029%=      5-min Rain = 0
KVA1 261516Z 21009KT 26/07 A3004 RMK A01 T02580065  RH  029%=      5-min Rain = 0
KVA1 261517Z 20008KT 26/07 A3004 RMK A01 T02590065  RH  029%=      5-min Rain = 0
KVA1 261518Z 20009KT 26/06 A3004 RMK A01 T02600063  RH  028%=      5-min Rain = 0
KVA1 261519Z 21009KT 26/06 A3004 RMK A01 T02610064  RH  029%=      5-min Rain = 0
KVA1 261520Z 21007KT 26/07 A3004 RMK A01 T02620065  RH  028%=      5-min Rain = 0
KVA1 261521Z 20011KT 26/07 A3004 RMK A01 T02640065  RH  028%=      5-min Rain = 0
KVA1 261522Z 20010KT 26/06 A3004 RMK A01 T02640063  RH  028%=      5-min Rain = 0
KVA1 261523Z 19008KT 26/07 A3004 RMK A01 T02630065  RH  028%=      5-min Rain = 0
KVA1 261524Z 20009KT 26/07 A3004 RMK A01 T02640066  RH  028%=      5-min Rain = 0
KVA1 261525Z 20009KT 27/07 A3004 RMK A01 T02650065  RH  028%=      5-min Rain = 0
KVA1 261526Z 20007KT 27/06 A3004 RMK A01 T02660063  RH  028%=      5-min Rain = 0
KVA1 261527Z 21009KT 27/07 A3004 RMK A01 T02670066  RH  028%=      5-min Rain = 0
KVA1 261528Z 20007KT 27/07 A3004 RMK A01 T02670066  RH  028%=      5-min Rain = 0
KVA1 261529Z 19007KT 27/07 A3004 RMK A01 T02680067  RH  028%=      5-min Rain = 0
KVA1 261530Z 20008KT 27/07 A3004 RMK A01 T02690067  RH  028%=      5-min Rain = 0
KVA1 261531Z 21011KT 27/06 A3004 RMK A01 T02710064  RH  027%=      5-min Rain = 0
KVA1 261532Z 21008KT 27/06 A3004 RMK A01 T02700064  RH  027%=      5-min Rain = 0
KVA1 261533Z 21006KT 27/07 A3004 RMK A01 T02710067  RH  027%=      5-min Rain = 0
KVA1 261534Z 21008KT 27/07 A3004 RMK A01 T02730065  RH  027%=      5-min Rain = 0
KVA1 261535Z 21009KT 28/06 A3004 RMK A01 T02750063  RH  026%=      5-min Rain = 0
KVA1 261536Z 21008KT 28/06 A3004 RMK A01 T02750062  RH  026%=      5-min Rain = 0
KVA1 261537Z 21008KT 28/06 A3004 RMK A01 T02750062  RH  026%=      5-min Rain = 0
KVA1 261538Z 20008KT 28/06 A3004 RMK A01 T02750062  RH  026%=      5-min Rain = 0
KVA1 261539Z 20009KT 28/06 A3004 RMK A01 T02760061  RH  026%=      5-min Rain = 0
KVA1 261540Z 20010KT 28/06 A3004 RMK A01 T02770064  RH  026%=      5-min Rain = 0
KVA1 261541Z 20008KT 28/06 A3004 RMK A01 T02770064  RH  026%=      5-min Rain = 0
KVA1 261542Z 20007KT 28/07 A3004 RMK A01 T02770067  RH  026%=      5-min Rain = 0
KVA1 261543Z 20008KT 28/07 A3004 RMK A01 T02780067  RH  026%=      5-min Rain = 0
KVA1 261544Z 19010KT 28/07 A3004 RMK A01 T02790068  RH  026%=      5-min Rain = 0
KVA1 261545Z 20010KT 28/07 A3004 RMK A01 T02800068  RH  026%=      5-min Rain = 0
KVA1 261546Z 19009KT 28/07 A3004 RMK A01 T02800070  RH  026%=      5-min Rain = 0
KVA1 261547Z 19008KT 28/07 A3004 RMK A01 T02800070  RH  027%=      5-min Rain = 0
KVA1 261548Z 20010KT 28/07 A3004 RMK A01 T02800067  RH  026%=      5-min Rain = 0
KVA1 261549Z 21009KT 28/06 A3004 RMK A01 T02830057  RH  024%=      5-min Rain = 0
KVA1 261550Z 21011KT 29/05 A3004 RMK A01 T02860050  RH  022%=      5-min Rain = 0
KVA1 261551Z 21009KT 29/05 A3004 RMK A01 T02870049  RH  022%=      5-min Rain = 0
KVA1 261552Z 20012KT 29/05 A3004 RMK A01 T02870048  RH  022%=      5-min Rain = 0
KVA1 261553Z 21011KT 29/05 A3004 RMK A01 T02880048  RH  022%=      5-min Rain = 0
KVA1 261554Z 20012KT 29/05 A3004 RMK A01 T02880049  RH  022%=      5-min Rain = 0
KVA1 261555Z 20012KT 29/05 A3004 RMK A01 T02900050  RH  022%=      5-min Rain = 0
KVA1 261556Z 20010KT 29/05 A3004 RMK A01 T02900049  RH  022%=      5-min Rain = 0
KVA1 261557Z 19011KT 29/05 A3004 RMK A01 T02900049  RH  022%=      5-min Rain = 0
KVA1 261558Z 20011KT 29/05 A3004 RMK A01 T02900049  RH  022%=      5-min Rain = 0
KVA1 261559Z 20011KT 29/05 A3004 RMK A01 T02910051  RH  022%=      5-min Rain = 0
KVA1 261600Z 21011KT 29/05 A3004 RMK A01 T02910052  RH  022%=      5-min Rain = 0
KVA1 261601Z 21009KT 29/05 A3004 RMK A01 T02920052  RH  022%=      5-min Rain = 0
KVA1 261602Z 21011KT 29/05 A3004 RMK A01 T02940054  RH  022%=      5-min Rain = 0
KVA1 261603Z 21012KT 30/05 A3004 RMK A01 T02950050  RH  021%=      5-min Rain = 0
KVA1 261604Z 21010KT 29/05 A3004 RMK A01 T02940052  RH  022%=      5-min Rain = 0
KVA1 261605Z 21011KT 29/05 A3004 RMK A01 T02940052  RH  022%=      5-min Rain = 0
KVA1 261606Z 20011KT 30/05 A3004 RMK A01 T02950052  RH  021%=      5-min Rain = 0
KVA1 261607Z 19010KT 30/05 A3004 RMK A01 T02960052  RH  021%=      5-min Rain = 0
KVA1 261608Z 18011KT 30/05 A3004 RMK A01 T02960052  RH  021%=      5-min Rain = 0
KVA1 261609Z 22008KT 30/05 A3004 RMK A01 T02980049  RH  021%=      5-min Rain = 0
KVA1 261610Z 22007KT 30/04 A3004 RMK A01 T03030038  RH  018%=      5-min Rain = 0
KVA1 261611Z 22008KT 31/04 A3004 RMK A01 T03070035  RH  018%=      5-min Rain = 0
KVA1 261612Z 22008KT 31/03 A3004 RMK A01 T03080030  RH  017%=      5-min Rain = 0
KVA1 261613Z 25010KT 31/03 A3004 RMK A01 T03090027  RH  017%=      5-min Rain = 0
KVA1 261614Z 26005KT 31/02 A3004 RMK A01 T03100024  RH  016%=      5-min Rain = 0
KVA1 261615Z 25008KT 31/03 A3004 RMK A01 T03100025  RH  016%=      5-min Rain = 0
KVA1 261616Z 23008KT 31/02 A3004 RMK A01 T03100021  RH  016%=      5-min Rain = 0
KVA1 261617Z 23009KT 31/02 A3004 RMK A01 T03110024  RH  016%=      5-min Rain = 0
KVA1 261618Z 25008KT 31/02 A3004 RMK A01 T03120022  RH  016%=      5-min Rain = 0
KVA1 261619Z 24011KT 31/02 A3004 RMK A01 T03130021  RH  016%=      5-min Rain = 0
KVA1 261620Z 25007KT 31/02 A3004 RMK A01 T03130022  RH  016%=      5-min Rain = 0
KVA1 261621Z 24006KT 32/02 A3004 RMK A01 T03150024  RH  016%=      5-min Rain = 0
KVA1 261622Z 24008KT 32/02 A3004 RMK A01 T03170024  RH  015%=      5-min Rain = 0
KVA1 261623Z 27010KT 32/02 A3004 RMK A01 T03170022  RH  015%=      5-min Rain = 0
KVA1 261624Z 25009KT 32/02 A3004 RMK A01 T03150021  RH  015%=      5-min Rain = 0
KVA1 261625Z 24008KT 31/02 A3004 RMK A01 T03140020  RH  015%=      5-min Rain = 0
KVA1 261626Z 27008KT 31/02 A3004 RMK A01 T03130021  RH  016%=      5-min Rain = 0
KVA1 261627Z 26011KT 31/02 A3004 RMK A01 T03130021  RH  016%=      5-min Rain = 0
KVA1 261628Z 26009KT 31/02 A3004 RMK A01 T03130020  RH  015%=      5-min Rain = 0
KVA1 261629Z 25009G14KT 31/02 A3004 RMK A01 T03130021  RH  015%=      5-min Rain = 0
KVA1 261630Z 24011KT 31/02 A3004 RMK A01 T03130020  RH  015%=      5-min Rain = 0
KVA1 261631Z 24013KT 31/02 A3004 RMK A01 T03130020  RH  015%=      5-min Rain = 0
KVA1 261632Z 24011KT 31/02 A3004 RMK A01 T03130022  RH  016%=      5-min Rain = 0
KVA1 261633Z 26012KT 32/02 A3004 RMK A01 T03160023  RH  016%=      5-min Rain = 0
KVA1 261634Z 26008KT 32/02 A3004 RMK A01 T03160022  RH  015%=      5-min Rain = 0
KVA1 261635Z 26008KT 32/02 A3004 RMK A01 T03170022  RH  015%=      5-min Rain = 0
KVA1 261636Z 26007KT 32/02 A3004 RMK A01 T03180022  RH  015%=      5-min Rain = 0
KVA1 261637Z 26008KT 32/02 A3004 RMK A01 T03180022  RH  015%=      5-min Rain = 0
KVA1 261638Z 26009KT 32/02 A3004 RMK A01 T03180022  RH  015%=      5-min Rain = 0
KVA1 261639Z 27009KT 32/02 A3004 RMK A01 T03180022  RH  015%=      5-min Rain = 0
KVA1 261640Z 27008KT 32/02 A3004 RMK A01 T03170022  RH  015%=      5-min Rain = 0
KVA1 261641Z 26009KT 32/02 A3004 RMK A01 T03150020  RH  015%=      5-min Rain = 0
KVA1 261642Z 24008KT 32/02 A3004 RMK A01 T03150022  RH  015%=      5-min Rain = 0
KVA1 261643Z 27007KT 32/02 A3004 RMK A01 T03180024  RH  015%=      5-min Rain = 0
KVA1 261644Z 27010G15KT 32/02 A3004 RMK A01 T03200024  RH  015%=      5-min Rain = 0
KVA1 261645Z 27010KT 32/02 A3004 RMK A01 T03190021  RH  015%=      5-min Rain = 0
KVA1 261646Z 27008KT 32/02 A3004 RMK A01 T03180022  RH  015%=      5-min Rain = 0
KVA1 261647Z 26010G15KT 32/02 A3004 RMK A01 T03190023  RH  015%=      5-min Rain = 0
KVA1 261648Z 26010KT 32/02 A3004 RMK A01 T03190021  RH  015%=      5-min Rain = 0
KVA1 261649Z 26013KT 32/02 A3004 RMK A01 T03170021  RH  015%=      5-min Rain = 0
KVA1 261650Z 25011KT 32/02 A3004 RMK A01 T03170021  RH  015%=      5-min Rain = 0
KVA1 261651Z 25009KT 32/02 A3004 RMK A01 T03170021  RH  015%=      5-min Rain = 0
KVA1 261652Z 25009KT 32/02 A3004 RMK A01 T03190023  RH  015%=      5-min Rain = 0
KVA1 261653Z 24010KT 32/02 A3004 RMK A01 T03190021  RH  015%=      5-min Rain = 0
KVA1 261654Z 24009KT 32/02 A3003 RMK A01 T03190023  RH  015%=      5-min Rain = 0
KVA1 261655Z 25011KT 32/02 A3003 RMK A01 T03200024  RH  015%=      5-min Rain = 0
KVA1 261656Z 24011KT 32/02 A3003 RMK A01 T03220024  RH  015%=      5-min Rain = 0
KVA1 261657Z 26010KT 32/02 A3003 RMK A01 T03230024  RH  015%=      5-min Rain = 0
KVA1 261658Z 25009KT 32/02 A3003 RMK A01 T03230023  RH  015%=      5-min Rain = 0
KVA1 261659Z 26011KT 32/02 A3003 RMK A01 T03240024  RH  015%=      5-min Rain = 0
KVA1 261700Z 25011KT 32/02 A3003 RMK A01 T03230023  RH  015%=      5-min Rain = 0
KVA1 261701Z 26012KT 32/02 A3003 RMK A01 T03230023  RH  015%=      5-min Rain = 0
KVA1 261702Z 28009KT 32/02 A3003 RMK A01 T03240024  RH  015%=      5-min Rain = 0
KVA1 261703Z 26012KT 33/03 A3003 RMK A01 T03260025  RH  015%=      5-min Rain = 0
KVA1 261704Z 27012KT 33/02 A3003 RMK A01 T03260023  RH  015%=      5-min Rain = 0
KVA1 261705Z 25012KT 32/02 A3003 RMK A01 T03240023  RH  015%=      5-min Rain = 0
KVA1 261706Z 26010KT 33/02 A3003 RMK A01 T03250023  RH  015%=      5-min Rain = 0
KVA1 261707Z 28013KT 33/02 A3003 RMK A01 T03250024  RH  015%=      5-min Rain = 0
KVA1 261708Z 27010KT 33/02 A3003 RMK A01 T03250023  RH  015%=      5-min Rain = 0
KVA1 261709Z 27009KT 33/02 A3003 RMK A01 T03250023  RH  015%=      5-min Rain = 0
KVA1 261710Z 24010KT 32/02 A3003 RMK A01 T03240023  RH  015%=      5-min Rain = 0
KVA1 261711Z 25010G15KT 32/02 A3003 RMK A01 T03240022  RH  015%=      5-min Rain = 0
KVA1 261712Z 26014KT 32/02 A3003 RMK A01 T03240023  RH  015%=      5-min Rain = 0
KVA1 261713Z 27011KT 33/02 A3003 RMK A01 T03250024  RH  015%=      5-min Rain = 0
KVA1 261714Z 27008G14KT 33/02 A3003 RMK A01 T03270022  RH  015%=      5-min Rain = 0
KVA1 261715Z 26013G18KT 33/02 A3003 RMK A01 T03260024  RH  015%=      5-min Rain = 0
KVA1 261716Z 27015KT 33/02 A3003 RMK A01 T03280024  RH  015%=      5-min Rain = 0
KVA1 261717Z 27012KT 33/03 A3003 RMK A01 T03300025  RH  015%=      5-min Rain = 0
KVA1 261718Z 27012KT 33/03 A3003 RMK A01 T03300025  RH  014%=      5-min Rain = 0
KVA1 261719Z 26011G16KT 33/03 A3003 RMK A01 T03300025  RH  014%=      5-min Rain = 0
KVA1 261720Z 26013KT 33/02 A3003 RMK A01 T03310024  RH  014%=      5-min Rain = 0
KVA1 261721Z 26012KT 33/02 A3003 RMK A01 T03290024  RH  014%=      5-min Rain = 0
KVA1 261722Z 27014KT 33/02 A3003 RMK A01 T03290024  RH  015%=      5-min Rain = 0
KVA1 261723Z 27011KT 33/02 A3002 RMK A01 T03270022  RH  014%=      5-min Rain = 0
KVA1 261724Z 27013KT 33/02 A3002 RMK A01 T03270024  RH  015%=      5-min Rain = 0
KVA1 261725Z 28010KT 33/03 A3002 RMK A01 T03300026  RH  015%=      5-min Rain = 0
KVA1 261726Z 27008KT 33/02 A3002 RMK A01 T03300024  RH  014%=      5-min Rain = 0
KVA1 261727Z 26011KT 33/03 A3002 RMK A01 T03310026  RH  015%=      5-min Rain = 0
KVA1 261728Z 28012KT 33/03 A3002 RMK A01 T03340027  RH  014%=      5-min Rain = 0
KVA1 261729Z 29013KT 33/02 A3002 RMK A01 T03330024  RH  014%=      5-min Rain = 0
KVA1 261730Z 29010KT 33/03 A3002 RMK A01 T03310025  RH  014%=      5-min Rain = 0
KVA1 261731Z 26009G14KT 33/03 A3002 RMK A01 T03320027  RH  015%=      5-min Rain = 0
KVA1 261732Z 27011G17KT 34/03 A3002 RMK A01 T03360026  RH  014%=      5-min Rain = 0
KVA1 261733Z 24008KT 34/03 A3002 RMK A01 T03360025  RH  014%=      5-min Rain = 0
KVA1 261734Z 23011KT 34/03 A3002 RMK A01 T03360026  RH  014%=      5-min Rain = 0
KVA1 261735Z 24011KT 34/02 A3002 RMK A01 T03350023  RH  014%=      5-min Rain = 0
KVA1 261736Z 26010G15KT 33/02 A3002 RMK A01 T03330024  RH  014%=      5-min Rain = 0
KVA1 261737Z 25009G15KT 33/03 A3002 RMK A01 T03340025  RH  014%=      5-min Rain = 0
KVA1 261738Z 24013KT 34/02 A3002 RMK A01 T03360024  RH  014%=      5-min Rain = 0
KVA1 261739Z 26014G19KT 34/02 A3002 RMK A01 T03350024  RH  014%=      5-min Rain = 0
KVA1 261740Z 27010G15KT 34/03 A3002 RMK A01 T03350026  RH  014%=      5-min Rain = 0
KVA1 261741Z 25011KT 34/03 A3002 RMK A01 T03380026  RH  014%=      5-min Rain = 0
KVA1 261742Z 25012G17KT 34/02 A3002 RMK A01 T03390024  RH  014%=      5-min Rain = 0
KVA1 261743Z 26012G17KT 34/02 A3002 RMK A01 T03390024  RH  014%=      5-min Rain = 0
KVA1 261744Z 28013KT 34/02 A3002 RMK A01 T03380024  RH  014%=      5-min Rain = 0
KVA1 261745Z 28013KT 34/02 A3002 RMK A01 T03350024  RH  014%=      5-min Rain = 0
KVA1 261746Z 28012KT 34/03 A3002 RMK A01 T03360025  RH  014%=      5-min Rain = 0
KVA1 261747Z 28010KT 34/03 A3002 RMK A01 T03360025  RH  014%=      5-min Rain = 0
KVA1 261748Z 26010KT 34/03 A3002 RMK A01 T03380026  RH  014%=      5-min Rain = 0
KVA1 261749Z 27010KT 34/02 A3001 RMK A01 T03390024  RH  014%=      5-min Rain = 0
KVA1 261750Z 29012KT 34/02 A3002 RMK A01 T03390024  RH  014%=      5-min Rain = 0
KVA1 261751Z 30009KT 34/02 A3001 RMK A01 T03370024  RH  014%=      5-min Rain = 0
KVA1 261752Z 29012KT 34/02 A3002 RMK A01 T03360024  RH  014%=      5-min Rain = 0
KVA1 261753Z 28011KT 34/02 A3001 RMK A01 T03370024  RH  014%=      5-min Rain = 0
KVA1 261754Z 26014G19KT 34/03 A3001 RMK A01 T03380027  RH  014%=      5-min Rain = 0
KVA1 261755Z 27016KT 34/02 A3001 RMK A01 T03390023  RH  014%=      5-min Rain = 0
KVA1 261756Z 28009G14KT 34/02 A3001 RMK A01 T03360023  RH  014%=      5-min Rain = 0
KVA1 261757Z 28012KT 34/03 A3001 RMK A01 T03370025  RH  014%=      5-min Rain = 0
KVA1 261758Z 27015KT 34/03 A3001 RMK A01 T03380025  RH  014%=      5-min Rain = 0
KVA1 261759Z 28011G16KT 34/02 A3001 RMK A01 T03390024  RH  014%=      5-min Rain = 0
KVA1 261800Z 27009KT 34/03 A3001 RMK A01 T03390026  RH  014%=      5-min Rain = 0
KVA1 261801Z 28011G16KT 34/03 A3001 RMK A01 T03420029  RH  014%=      5-min Rain = 0
KVA1 261802Z 27014KT 35/03 A3001 RMK A01 T03460028  RH  014%=      5-min Rain = 0
KVA1 261803Z 26012KT 34/03 A3001 RMK A01 T03430025  RH  013%=      5-min Rain = 0
KVA1 261804Z 26010KT 34/02 A3001 RMK A01 T03420024  RH  014%=      5-min Rain = 0
KVA1 261805Z 26011KT 34/02 A3001 RMK A01 T03420024  RH  014%=      5-min Rain = 0
KVA1 261806Z 26010KT 35/03 A3001 RMK A01 T03450028  RH  014%=      5-min Rain = 0
KVA1 261807Z 26009KT 35/03 A3001 RMK A01 T03480027  RH  013%=      5-min Rain = 0
KVA1 261808Z 24010KT 35/03 A3001 RMK A01 T03490027  RH  013%=      5-min Rain = 0
KVA1 261809Z 25012KT 35/03 A3001 RMK A01 T03480025  RH  013%=      5-min Rain = 0
KVA1 261810Z 26011KT 34/02 A3001 RMK A01 T03440022  RH  013%=      5-min Rain = 0
KVA1 261811Z 28010KT 34/03 A3001 RMK A01 T03420025  RH  014%=      5-min Rain = 0
KVA1 261812Z 28012KT 34/02 A3001 RMK A01 T03420024  RH  013%=      5-min Rain = 0
KVA1 261813Z 29011KT 34/02 A3001 RMK A01 T03400024  RH  014%=      5-min Rain = 0
KVA1 261814Z 27010KT 34/02 A3001 RMK A01 T03400024  RH  014%=      5-min Rain = 0
KVA1 261815Z 27011G16KT 34/03 A3001 RMK A01 T03400026  RH  014%=      5-min Rain = 0
KVA1 261816Z 27013KT 34/03 A3001 RMK A01 T03410026  RH  014%=      5-min Rain = 0
KVA1 261817Z 27012KT 34/03 A3001 RMK A01 T03410025  RH  014%=      5-min Rain = 0
KVA1 261818Z 26009G14KT 34/02 A3001 RMK A01 T03390023  RH  014%=      5-min Rain = 0
KVA1 261819Z 26012KT 34/03 A3001 RMK A01 T03410025  RH  014%=      5-min Rain = 0
KVA1 261820Z 25009KT 34/03 A3001 RMK A01 T03440026  RH  014%=      5-min Rain = 0
KVA1 261821Z 26009KT 35/03 A30 RMK A01 T03460025  RH  013%=      5-min Rain = 0
KVA1 261822Z 25013G18KT 35/03 A30 RMK A01 T03450025  RH  013%=      5-min Rain = 0
KVA1 261823Z 28016KT 35/03 A30 RMK A01 T03470026  RH  013%=      5-min Rain = 0
KVA1 261824Z 26016KT 35/03 A30 RMK A01 T03470025  RH  013%=      5-min Rain = 0
KVA1 261825Z 27011KT 35/02 A30 RMK A01 T03450023  RH  013%=      5-min Rain = 0
KVA1 261826Z 27012KT 34/02 A30 RMK A01 T03440024  RH  013%=      5-min Rain = 0
KVA1 261827Z 26009KT 35/03 A30 RMK A01 T03450025  RH  013%=      5-min Rain = 0
KVA1 261828Z 25008KT 35/02 A30 RMK A01 T03460024  RH  013%=      5-min Rain = 0
KVA1 261829Z 24008KT 35/02 A30 RMK A01 T03450023  RH  013%=      5-min Rain = 0
KVA1 261830Z 25009KT 35/02 A30 RMK A01 T03450024  RH  013%=      5-min Rain = 0
KVA1 261831Z 23011KT 35/03 A30 RMK A01 T03460026  RH  013%=      5-min Rain = 0
KVA1 261832Z 24014G19KT 35/03 A30 RMK A01 T03490026  RH  013%=      5-min Rain = 0
KVA1 261833Z 25009KT 35/03 A30 RMK A01 T03510025  RH  013%=      5-min Rain = 0
KVA1 261834Z 26007KT 35/03 A30 RMK A01 T03520025  RH  013%=      5-min Rain = 0
KVA1 261835Z 26006KT 35/02 A30 RMK A01 T03490023  RH  013%=      5-min Rain = 0
KVA1 261836Z 27008G13KT 35/03 A30 RMK A01 T03490026  RH  013%=      5-min Rain = 0
KVA1 261837Z 27013KT 35/03 A30 RMK A01 T03500026  RH  013%=      5-min Rain = 0
KVA1 261838Z 27014KT 35/02 A30 RMK A01 T03480022  RH  013%=      5-min Rain = 0
KVA1 261839Z 27011KT 35/02 A30 RMK A01 T03470023  RH  013%=      5-min Rain = 0
KVA1 261840Z 27011G17KT 35/02 A30 RMK A01 T03460023  RH  013%=      5-min Rain = 0
KVA1 261841Z 27012G17KT 35/02 A30 RMK A01 T03460024  RH  013%=      5-min Rain = 0
KVA1 261842Z 27010KT 35/02 A30 RMK A01 T03480024  RH  013%=      5-min Rain = 0
KVA1 261843Z 28007KT 35/02 A30 RMK A01 T03480022  RH  013%=      5-min Rain = 0
KVA1 261844Z 29006KT 35/02 A2999 RMK A01 T03450021  RH  013%=      5-min Rain = 0
KVA1 261845Z 25009KT 35/02 A2999 RMK A01 T03460024  RH  013%=      5-min Rain = 0
KVA1 261846Z 26007KT 35/02 A2999 RMK A01 T03490023  RH  013%=      5-min Rain = 0
KVA1 261847Z 27013KT 35/02 A2999 RMK A01 T03500024  RH  013%=      5-min Rain = 0
KVA1 261848Z 27009KT 35/03 A2999 RMK A01 T03520025  RH  013%=      5-min Rain = 0
KVA1 261849Z 27006KT 35/02 A2999 RMK A01 T03520023  RH  013%=      5-min Rain = 0
KVA1 261850Z 28012KT 35/02 A2999 RMK A01 T03520024  RH  013%=      5-min Rain = 0
KVA1 261851Z 29012KT 35/02 A2999 RMK A01 T03530024  RH  013%=      5-min Rain = 0
KVA1 261852Z 29007KT 35/02 A2999 RMK A01 T03510023  RH  013%=      5-min Rain = 0
KVA1 261853Z 30005KT 35/02 A2999 RMK A01 T03510021  RH  013%=      5-min Rain = 0
KVA1 261854Z 25009KT 35/02 A2999 RMK A01 T03510022  RH  013%=      5-min Rain = 0
KVA1 261855Z 24006KT 35/02 A2999 RMK A01 T03510021  RH  013%=      5-min Rain = 0
KVA1 261856Z 24004KT 35/02 A2999 RMK A01 T03500020  RH  013%=      5-min Rain = 0
KVA1 261857Z 25006KT 35/02 A2999 RMK A01 T03520023  RH  013%=      5-min Rain = 0
KVA1 261858Z 26008KT 36/03 A2999 RMK A01 T03570026  RH  013%=      5-min Rain = 0
KVA1 261859Z 27011KT 36/03 A2999 RMK A01 T03610025  RH  012%=      5-min Rain = 0
KVA1 261900Z 27012KT 36/02 A2999 RMK A01 T03580022  RH  012%=      5-min Rain = 0
KVA1 261901Z 28015KT 36/02 A2999 RMK A01 T03570023  RH  012%=      5-min Rain = 0
KVA1 261902Z 28010KT 36/02 A2998 RMK A01 T03550022  RH  012%=      5-min Rain = 0
KVA1 261903Z 26013G19KT 36/02 A2998 RMK A01 T03550022  RH  012%=      5-min Rain = 0
KVA1 261904Z 28012G20KT 36/02 A2998 RMK A01 T03560022  RH  012%=      5-min Rain = 0
KVA1 261905Z 28007KT 36/02 A2998 RMK A01 T03550024  RH  013%=      5-min Rain = 0
KVA1 261906Z 28006KT 36/03 A2998 RMK A01 T03580025  RH  012%=      5-min Rain = 0
KVA1 261907Z 31006KT 36/02 A2998 RMK A01 T03570023  RH  012%=      5-min Rain = 0
KVA1 261908Z 29010KT 36/02 A2998 RMK A01 T03580023  RH  012%=      5-min Rain = 0
KVA1 261909Z 29012KT 36/02 A2998 RMK A01 T03590022  RH  012%=      5-min Rain = 0
KVA1 261910Z 30009KT 36/02 A2998 RMK A01 T03580022  RH  012%=      5-min Rain = 0
KVA1 261911Z 29009KT 36/02 A2998 RMK A01 T03570020  RH  012%=      5-min Rain = 0
KVA1 261912Z 32006KT 36/02 A2998 RMK A01 T03590024  RH  012%=      5-min Rain = 0
KVA1 261913Z 32006KT 36/02 A2998 RMK A01 T03590019  RH  012%=      5-min Rain = 0
KVA1 261914Z 29005G10KT 36/02 A2998 RMK A01 T03560019  RH  012%=      5-min Rain = 0
KVA1 261915Z 27007KT 36/02 A2998 RMK A01 T03560022  RH  012%=      5-min Rain = 0
KVA1 261916Z 28010G15KT 36/02 A2998 RMK A01 T03590022  RH  012%=      5-min Rain = 0
KVA1 261917Z 28012KT 36/02 A2998 RMK A01 T03610023  RH  012%=      5-min Rain = 0
KVA1 261918Z 26011KT 36/02 A2998 RMK A01 T03610022  RH  012%=      5-min Rain = 0
KVA1 261919Z 26011KT 36/02 A2998 RMK A01 T03590019  RH  012%=      5-min Rain = 0
KVA1 261920Z 27008KT 36/02 A2998 RMK A01 T03580020  RH  012%=      5-min Rain = 0
KVA1 261921Z 29009KT 36/02 A2998 RMK A01 T03570020  RH  012%=      5-min Rain = 0
KVA1 261922Z 29009KT 36/02 A2998 RMK A01 T03570022  RH  012%=      5-min Rain = 0
KVA1 261923Z 27010KT 36/02 A2998 RMK A01 T03590022  RH  012%=      5-min Rain = 0
KVA1 261924Z 27011KT 36/02 A2998 RMK A01 T03610022  RH  012%=      5-min Rain = 0
KVA1 261925Z 27008KT 36/02 A2998 RMK A01 T03600021  RH  012%=      5-min Rain = 0
KVA1 261926Z 26008KT 36/02 A2997 RMK A01 T03590021  RH  012%=      5-min Rain = 0
KVA1 261927Z 27008G13KT 36/02 A2997 RMK A01 T03580021  RH  012%=      5-min Rain = 0
KVA1 261928Z 28008KT 36/02 A2997 RMK A01 T03580022  RH  012%=      5-min Rain = 0
KVA1 261929Z 29006KT 36/02 A2997 RMK A01 T03580020  RH  012%=      5-min Rain = 0
KVA1 261930Z 26006G12KT 36/02 A2997 RMK A01 T03570020  RH  012%=      5-min Rain = 0
KVA1 261931Z 26011KT 36/02 A2997 RMK A01 T03580021  RH  012%=      5-min Rain = 0
KVA1 261932Z 27011KT 36/02 A2997 RMK A01 T03600021  RH  012%=      5-min Rain = 0
KVA1 261933Z 27011KT 36/02 A2997 RMK A01 T03600021  RH  012%=      5-min Rain = 0
KVA1 261934Z 28009G14KT 36/02 A2997 RMK A01 T03610022  RH  012%=      5-min Rain = 0
KVA1 261935Z 29014KT 36/02 A2997 RMK A01 T03610021  RH  012%=      5-min Rain = 0
KVA1 261936Z 28012KT 36/02 A2997 RMK A01 T03590020  RH  012%=      5-min Rain = 0
KVA1 261937Z 30008KT 36/02 A2997 RMK A01 T03570020  RH  012%=      5-min Rain = 0
KVA1 261938Z 32008KT 36/02 A2997 RMK A01 T03590021  RH  012%=      5-min Rain = 0
KVA1 261939Z 29008KT 36/02 A2997 RMK A01 T03630022  RH  012%=      5-min Rain = 0
KVA1 261940Z 28009KT 37/02 A2997 RMK A01 T03650023  RH  012%=      5-min Rain = 0
KVA1 261941Z 28011KT 37/02 A2997 RMK A01 T03650023  RH  012%=      5-min Rain = 0
KVA1 261942Z 26009G14KT 36/02 A2997 RMK A01 T03640022  RH  012%=      5-min Rain = 0
KVA1 261943Z 27011G16KT 37/02 A2996 RMK A01 T03650019  RH  011%=      5-min Rain = 0
KVA1 261944Z 28012KT 37/02 A2996 RMK A01 T03650018  RH  011%=      5-min Rain = 0
KVA1 261945Z 30012KT 36/02 A2996 RMK A01 T03640020  RH  012%=      5-min Rain = 0
KVA1 261946Z 28014KT 36/02 A2996 RMK A01 T03640019  RH  012%=      5-min Rain = 0
KVA1 261947Z 29012KT 36/02 A2996 RMK A01 T03620020  RH  012%=      5-min Rain = 0
KVA1 261948Z 31010KT 36/02 A2996 RMK A01 T03630020  RH  012%=      5-min Rain = 0
KVA1 261949Z 30010G15KT 36/02 A2996 RMK A01 T03610019  RH  012%=      5-min Rain = 0
KVA1 261950Z 29010G15KT 36/02 A2996 RMK A01 T03580018  RH  012%=      5-min Rain = 0
KVA1 261951Z 28010KT 36/02 A2996 RMK A01 T03570018  RH  012%=      5-min Rain = 0
KVA1 261952Z 28010KT 36/02 A2996 RMK A01 T03570018  RH  012%=      5-min Rain = 0
KVA1 261953Z 26007KT 36/02 A2996 RMK A01 T03580017  RH  012%=      5-min Rain = 0
KVA1 261954Z 27010KT 36/02 A2996 RMK A01 T03590017  RH  012%=      5-min Rain = 0
KVA1 261955Z 27010G15KT 36/02 A2996 RMK A01 T03610019  RH  012%=      5-min Rain = 0
KVA1 261956Z 27008KT 36/02 A2996 RMK A01 T03610018  RH  012%=      5-min Rain = 0
KVA1 261957Z 29007KT 36/02 A2996 RMK A01 T03610018  RH  012%=      5-min Rain = 0
KVA1 261958Z 25009KT 36/02 A2996 RMK A01 T03620019  RH  012%=      5-min Rain = 0
KVA1 261959Z 27010KT 36/02 A2996 RMK A01 T03630017  RH  011%=      5-min Rain = 0
KVA1 262000Z 27008KT 37/02 A2995 RMK A01 T03650021  RH  012%=      5-min Rain = 0
KVA1 262001Z 27010KT 37/02 A2995 RMK A01 T03680022  RH  012%=      5-min Rain = 0
KVA1 262002Z 27010G16KT 37/02 A2995 RMK A01 T03670020  RH  011%=      5-min Rain = 0
KVA1 262003Z 26011KT 37/02 A2995 RMK A01 T03660020  RH  012%=      5-min Rain = 0
KVA1 262004Z 26011KT 36/02 A2995 RMK A01 T03640019  RH  011%=      5-min Rain = 0
KVA1 262005Z 27010KT 36/02 A2995 RMK A01 T03640019  RH  012%=      5-min Rain = 0
KVA1 262006Z 27010KT 37/02 A2995 RMK A01 T03660018  RH  011%=      5-min Rain = 0
KVA1 262007Z 27012KT 37/02 A2995 RMK A01 T03670019  RH  011%=      5-min Rain = 0
KVA1 262008Z 26010KT 37/02 A2995 RMK A01 T03650018  RH  011%=      5-min Rain = 0
KVA1 262009Z 27013KT 37/02 A2995 RMK A01 T03690020  RH  011%=      5-min Rain = 0
KVA1 262010Z 27012KT 37/02 A2995 RMK A01 T03690017  RH  011%=      5-min Rain = 0
KVA1 262011Z 26005KT 36/02 A2995 RMK A01 T03640015  RH  011%=      5-min Rain = 0
KVA1 262012Z 25012G19KT 36/02 A2995 RMK A01 T03620016  RH  011%=      5-min Rain = 0
KVA1 262013Z 25015KT 36/02 A2994 RMK A01 T03620017  RH  011%=      5-min Rain = 0
KVA1 262014Z 26013KT 37/02 A2995 RMK A01 T03650017  RH  011%=      5-min Rain = 0
KVA1 262015Z 28013KT 37/02 A2995 RMK A01 T03660017  RH  011%=      5-min Rain = 0
KVA1 262016Z 30009KT 37/02 A2995 RMK A01 T03660017  RH  011%=      5-min Rain = 0
KVA1 262017Z 27008G13KT 37/02 A2994 RMK A01 T03690018  RH  011%=      5-min Rain = 0
KVA1 262018Z 27009KT 37/01 A2994 RMK A01 T03690014  RH  011%=      5-min Rain = 0
KVA1 262019Z 26010KT 37/01 A2994 RMK A01 T03680013  RH  011%=      5-min Rain = 0
KVA1 262020Z 26008KT 37/01 A2994 RMK A01 T03650013  RH  011%=      5-min Rain = 0
KVA1 262021Z 28007KT 37/02 A2994 RMK A01 T03680018  RH  011%=      5-min Rain = 0
KVA1 262022Z 28010KT 37/01 A2994 RMK A01 T03710014  RH  011%=      5-min Rain = 0
KVA1 262023Z 28013KT 37/02 A2994 RMK A01 T03700015  RH  011%=      5-min Rain = 0
KVA1 262024Z 29010KT 37/01 A2994 RMK A01 T03670012  RH  011%=      5-min Rain = 0
KVA1 262025Z 29009KT 37/01 A2994 RMK A01 T03650013  RH  011%=      5-min Rain = 0
KVA1 262026Z 28012KT 37/02 A2994 RMK A01 T03660015  RH  011%=      5-min Rain = 0
KVA1 262027Z 27010G15KT 37/02 A2994 RMK A01 T03670015  RH  011%=      5-min Rain = 0
KVA1 262028Z 27012KT 37/01 A2994 RMK A01 T03670012  RH  011%=      5-min Rain = 0
KVA1 262029Z 26010G15KT 37/01 A2994 RMK A01 T03650013  RH  011%=      5-min Rain = 0
KVA1 262030Z 26010KT 36/01 A2994 RMK A01 T03640013  RH  011%=      5-min Rain = 0
KVA1 262031Z 25008KT 37/01 A2994 RMK A01 T03670013  RH  011%=      5-min Rain = 0
KVA1 262032Z 24010KT 37/01 A2994 RMK A01 T03710009  RH  010%=      5-min Rain = 0
KVA1 262033Z 23012KT 37/01 A2994 RMK A01 T03700007  RH  010%=      5-min Rain = 0
KVA1 262034Z 24010KT 37/01 A2994 RMK A01 T03700008  RH  010%=      5-min Rain = 0
KVA1 262035Z 27008G14KT 37/01 A2994 RMK A01 T03710010  RH  010%=      5-min Rain = 0
KVA1 262036Z 28013KT 37/01 A2994 RMK A01 T03720009  RH  010%=      5-min Rain = 0
KVA1 262037Z 27011KT 37/01 A2994 RMK A01 T03690006  RH  010%=      5-min Rain = 0
KVA1 262038Z 27011KT 37/01 A2994 RMK A01 T03680005  RH  010%=      5-min Rain = 0
KVA1 262039Z 27015KT 37/01 A2994 RMK A01 T03670007  RH  010%=      5-min Rain = 0
KVA1 262040Z 28009G14KT 37/00 A2994 RMK A01 T03660003  RH  010%=      5-min Rain = 0
KVA1 262041Z 27007KT 36/00 A2993 RMK A01 T03620002  RH  010%=      5-min Rain = 0
KVA1 262042Z 25008KT 36/01 A2993 RMK A01 T03630006  RH  011%=      5-min Rain = 0
KVA1 262043Z 24006KT 37/01 A2993 RMK A01 T03680009  RH  011%=      5-min Rain = 0
KVA1 262044Z 25006KT 38/01 A2993 RMK A01 T03750013  RH  010%=      5-min Rain = 0
KVA1 262045Z 24007KT 38/01 A2993 RMK A01 T03790013  RH  010%=      5-min Rain = 0
KVA1 262046Z 24008KT 38/01 A2993 RMK A01 T03800013  RH  010%=      5-min Rain = 0
KVA1 262047Z 23011KT 38/01 A2993 RMK A01 T03770012  RH  010%=      5-min Rain = 0
KVA1 262048Z 26008KT 37/01 A2993 RMK A01 T03740013  RH  010%=      5-min Rain = 0
KVA1 262049Z 26011KT 38/01 A2993 RMK A01 T03750013  RH  010%=      5-min Rain = 0
KVA1 262050Z 26014KT 37/01 A2993 RMK A01 T03740011  RH  010%=      5-min Rain = 0
KVA1 262051Z 26012KT 37/01 A2993 RMK A01 T03730007  RH  010%=      5-min Rain = 0
KVA1 262052Z 25011KT 37/01 A2993 RMK A01 T03700006  RH  010%=      5-min Rain = 0
KVA1 262053Z 24011KT 37/00 A2993 RMK A01 T03700004  RH  010%=      5-min Rain = 0
KVA1 262054Z 23009KT 37/00 A2993 RMK A01 T03690001  RH  010%=      5-min Rain = 0
KVA1 262055Z 24010KT 37/01 A2993 RMK A01 T03670005  RH  010%=      5-min Rain = 0
KVA1 262056Z 23006KT 37/01 A2993 RMK A01 T03660010  RH  011%=      5-min Rain = 0
KVA1 262057Z 24005KT 37/01 A2993 RMK A01 T03690011  RH  011%=      5-min Rain = 0
KVA1 262058Z 26011G16KT 37/01 A2992 RMK A01 T03690011  RH  011%=      5-min Rain = 0
KVA1 262059Z 24011KT 37/01 A2993 RMK A01 T03710013  RH  011%=      5-min Rain = 0
KVA1 262100Z 26008KT 37/01 A2993 RMK A01 T03720012  RH  010%=      5-min Rain = 0
KVA1 262101Z 29007KT 37/00 A2993 RMK A01 T03710004  RH  010%=      5-min Rain = 0
KVA1 262102Z 30007KT 37/M00 A2992 RMK A01 T03701001  RH  010%=      5-min Rain = 0
KVA1 262103Z 28006KT 37/M00 A2992 RMK A01 T03691002  RH  010%=      5-min Rain = 0
KVA1 262104Z 25007KT 37/00 A2992 RMK A01 T03700002  RH  010%=      5-min Rain = 0
KVA1 262105Z 24012KT 37/01 A2992 RMK A01 T03710005  RH  010%=      5-min Rain = 0
KVA1 262106Z 26012KT 37/00 A2992 RMK A01 T03700004  RH  010%=      5-min Rain = 0
KVA1 262107Z 27013KT 37/00 A2992 RMK A01 T03700004  RH  010%=      5-min Rain = 0
KVA1 262108Z 26009G17KT 37/00 A2992 RMK A01 T03680003  RH  010%=      5-min Rain = 0
KVA1 262109Z 26009G14KT 37/00 A2992 RMK A01 T03670004  RH  010%=      5-min Rain = 0
KVA1 262110Z 24007KT 37/00 A2992 RMK A01 T03650003  RH  010%=      5-min Rain = 0
KVA1 262111Z 21008KT 37/00 A2992 RMK A01 T03650002  RH  010%=      5-min Rain = 0
KVA1 262112Z 26007KT 36/00 A2992 RMK A01 T03630001  RH  010%=      5-min Rain = 0
KVA1 262113Z 25007KT 36/00 A2992 RMK A01 T03640003  RH  010%=      5-min Rain = 0
KVA1 262114Z 25007KT 37/00 A2992 RMK A01 T03690003  RH  010%=      5-min Rain = 0
KVA1 262115Z 25009G14KT 37/00 A2992 RMK A01 T03690000  RH  010%=      5-min Rain = 0
KVA1 262116Z 25009KT 37/00 A2992 RMK A01 T03690000  RH  010%=      5-min Rain = 0
KVA1 262117Z 25012KT 37/00 A2992 RMK A01 T03710003  RH  010%=      5-min Rain = 0
KVA1 262118Z 26010KT 37/00 A2992 RMK A01 T03720002  RH  010%=      5-min Rain = 0
KVA1 262119Z 27010KT 37/00 A2992 RMK A01 T037400-0  RH  010%=      5-min Rain = 0
KVA1 262120Z 28013KT 38/M01 A2992 RMK A01 T03751011  RH  009%=      5-min Rain = 0
KVA1 262121Z 28013KT 37/M01 A2992 RMK A01 T03711012  RH  009%=      5-min Rain = 0
KVA1 262122Z 26012KT 37/M01 A2992 RMK A01 T03721011  RH  009%=      5-min Rain = 0
KVA1 262123Z 26011KT 37/M02 A2992 RMK A01 T03711015  RH  009%=      5-min Rain = 0
KVA1 262124Z 26011KT 37/M02 A2992 RMK A01 T03701015  RH  009%=      5-min Rain = 0
KVA1 262125Z 26013KT 37/M01 A2992 RMK A01 T03701013  RH  009%=      5-min Rain = 0
KVA1 262126Z 25011KT 37/M02 A2992 RMK A01 T03671015  RH  009%=      5-min Rain = 0
KVA1 262127Z 25010KT 37/M01 A2992 RMK A01 T03661010  RH  009%=      5-min Rain = 0
KVA1 262128Z 24010KT 37/M01 A2992 RMK A01 T03651012  RH  009%=      5-min Rain = 0
KVA1 262129Z 26008KT 37/M01 A2992 RMK A01 T03651012  RH  009%=      5-min Rain = 0
KVA1 262130Z 24007KT 37/M01 A2992 RMK A01 T03661013  RH  009%=      5-min Rain = 0
KVA1 262131Z 22010G15KT 37/M01 A2992 RMK A01 T03661008  RH  009%=      5-min Rain = 0
KVA1 262132Z 19006KT 37/M01 A2992 RMK A01 T03661006  RH  010%=      5-min Rain = 0
KVA1 262133Z 19006KT 37/M00 A2992 RMK A01 T03651004  RH  010%=      5-min Rain = 0
KVA1 262134Z 22006KT 37/M00 A2992 RMK A01 T03661001  RH  010%=      5-min Rain = 0
KVA1 262135Z 24006KT 37/00 A2992 RMK A01 T03670000  RH  010%=      5-min Rain = 0
KVA1 262136Z 26005KT 37/00 A2992 RMK A01 T03670002  RH  010%=      5-min Rain = 0
KVA1 262137Z 25004KT 37/01 A2991 RMK A01 T03670005  RH  010%=      5-min Rain = 0
KVA1 262138Z 28005KT 37/01 A2992 RMK A01 T03700006  RH  010%=      5-min Rain = 0
KVA1 262139Z 29006KT 37/01 A2991 RMK A01 T03710006  RH  010%=      5-min Rain = 0
KVA1 262140Z 30007KT 37/01 A2992 RMK A01 T03710007  RH  010%=      5-min Rain = 0
KVA1 262141Z 26009KT 37/01 A2991 RMK A01 T03700007  RH  010%=      5-min Rain = 0
KVA1 262142Z 25010KT 37/01 A2992 RMK A01 T03720008  RH  010%=      5-min Rain = 0
KVA1 262143Z 24008KT 37/01 A2992 RMK A01 T03720006  RH  010%=      5-min Rain = 0
KVA1 262144Z 26008KT 37/00 A2991 RMK A01 T03700004  RH  010%=      5-min Rain = 0
KVA1 262145Z 27005KT 37/01 A2991 RMK A01 T03680006  RH  010%=      5-min Rain = 0
KVA1 262146Z 26005KT 37/01 A2991 RMK A01 T03680006  RH  010%=      5-min Rain = 0
KVA1 262147Z 25009KT 37/01 A2991 RMK A01 T03680005  RH  010%=      5-min Rain = 0
KVA1 262148Z 24010KT 37/01 A2991 RMK A01 T03700008  RH  010%=      5-min Rain = 0
KVA1 262149Z 25005KT 37/01 A2991 RMK A01 T03700005  RH  010%=      5-min Rain = 0
KVA1 262150Z 25004KT 37/01 A2991 RMK A01 T03700005  RH  010%=      5-min Rain = 0
KVA1 262151Z 25006KT 37/01 A2991 RMK A01 T03690007  RH  010%=      5-min Rain = 0
KVA1 262152Z 26008KT 37/01 A2991 RMK A01 T03710007  RH  010%=      5-min Rain = 0
KVA1 262153Z 28008KT 37/01 A2991 RMK A01 T03720008  RH  010%=      5-min Rain = 0
KVA1 262154Z 28011G17KT 37/01 A2991 RMK A01 T03700008  RH  010%=      5-min Rain = 0
KVA1 262155Z 27010KT 37/01 A2991 RMK A01 T03670009  RH  011%=      5-min Rain = 0
KVA1 262156Z 27009KT 37/01 A2991 RMK A01 T03680009  RH  011%=      5-min Rain = 0
KVA1 262157Z 28011KT 37/01 A2991 RMK A01 T03680010  RH  011%=      5-min Rain = 0
KVA1 262158Z 28006KT 37/01 A2991 RMK A01 T03650006  RH  010%=      5-min Rain = 0
KVA1 262159Z 29006KT 36/01 A2991 RMK A01 T03630008  RH  011%=      5-min Rain = 0
KVA1 262200Z 25006G11KT 36/01 A2991 RMK A01 T03640010  RH  011%=      5-min Rain = 0
KVA1 262201Z 25009KT 37/01 A2991 RMK A01 T03670009  RH  011%=      5-min Rain = 0
KVA1 262202Z 26013G19KT 37/01 A2991 RMK A01 T03680008  RH  010%=      5-min Rain = 0
KVA1 262203Z 25012KT 37/01 A2991 RMK A01 T03690008  RH  010%=      5-min Rain = 0
KVA1 262204Z 25011KT 37/01 A2991 RMK A01 T03710007  RH  010%=      5-min Rain = 0
KVA1 262205Z 26012G17KT 37/00 A2991 RMK A01 T03700004  RH  010%=      5-min Rain = 0
KVA1 262206Z 25013G18KT 37/01 A2991 RMK A01 T03690007  RH  010%=      5-min Rain = 0
KVA1 262207Z 26011KT 37/01 A2991 RMK A01 T03700006  RH  010%=      5-min Rain = 0
KVA1 262208Z 26011KT 37/01 A2991 RMK A01 T03680006  RH  010%=      5-min Rain = 0
KVA1 262209Z 26011KT 37/01 A2991 RMK A01 T03690008  RH  010%=      5-min Rain = 0
KVA1 262210Z 25012KT 37/01 A2991 RMK A01 T03700008  RH  010%=      5-min Rain = 0
KVA1 262211Z 27009KT 37/01 A2991 RMK A01 T03680007  RH  010%=      5-min Rain = 0
KVA1 262212Z 27014G19KT 37/01 A2991 RMK A01 T03670008  RH  010%=      5-min Rain = 0
KVA1 262213Z 28015KT 37/01 A2991 RMK A01 T03670008  RH  010%=      5-min Rain = 0
KVA1 262214Z 27014G20KT 37/01 A2991 RMK A01 T03660007  RH  010%=      5-min Rain = 0
KVA1 262215Z 29012KT 37/01 A2991 RMK A01 T03660008  RH  011%=      5-min Rain = 0
KVA1 262216Z 30012KT 37/01 A2991 RMK A01 T03660008  RH  011%=      5-min Rain = 0
KVA1 262217Z 27006KT 37/01 A2991 RMK A01 T03660010  RH  011%=      5-min Rain = 0
KVA1 262218Z 25011G18KT 37/01 A2991 RMK A01 T03680010  RH  011%=      5-min Rain = 0
KVA1 262219Z 26014KT 37/01 A2991 RMK A01 T03710010  RH  010%=      5-min Rain = 0
KVA1 262220Z 26013KT 37/01 A2991 RMK A01 T03700007  RH  010%=      5-min Rain = 0
KVA1 262221Z 26013KT 37/01 A2991 RMK A01 T03680006  RH  010%=      5-min Rain = 0
KVA1 262222Z 28011KT 37/01 A2991 RMK A01 T03660006  RH  010%=      5-min Rain = 0
KVA1 262223Z 28009KT 37/01 A2991 RMK A01 T03650008  RH  011%=      5-min Rain = 0
KVA1 262224Z 28008KT 37/01 A2991 RMK A01 T03660009  RH  011%=      5-min Rain = 0
KVA1 262225Z 27013G18KT 37/01 A2991 RMK A01 T03680009  RH  011%=      5-min Rain = 0
KVA1 262226Z 28016G21KT 37/01 A2991 RMK A01 T03680006  RH  010%=      5-min Rain = 0
KVA1 262227Z 29012KT 37/01 A2991 RMK A01 T03670007  RH  010%=      5-min Rain = 0
KVA1 262228Z 29012KT 37/01 A2991 RMK A01 T03660006  RH  010%=      5-min Rain = 0
KVA1 262229Z 27012KT 36/01 A2991 RMK A01 T03640005  RH  010%=      5-min Rain = 0
KVA1 262230Z 27009KT 36/01 A2991 RMK A01 T03640006  RH  011%=      5-min Rain = 0
KVA1 262231Z 27013G19KT 37/01 A2991 RMK A01 T03660008  RH  011%=      5-min Rain = 0
KVA1 262232Z 28014KT 37/01 A2991 RMK A01 T03660007  RH  010%=      5-min Rain = 0
KVA1 262233Z 26012KT 37/01 A2991 RMK A01 T03650007  RH  011%=      5-min Rain = 0
KVA1 262234Z 26010KT 37/01 A2991 RMK A01 T03650006  RH  010%=      5-min Rain = 0
KVA1 262235Z 26009KT 37/01 A2991 RMK A01 T03660007  RH  010%=      5-min Rain = 0
KVA1 262236Z 26011KT 37/01 A2991 RMK A01 T03670007  RH  010%=      5-min Rain = 0
KVA1 262237Z 26007KT 37/01 A2991 RMK A01 T03660007  RH  010%=      5-min Rain = 0
KVA1 262238Z 28008KT 37/01 A2991 RMK A01 T03660008  RH  011%=      5-min Rain = 0
KVA1 262239Z 29007KT 37/01 A2991 RMK A01 T03660007  RH  010%=      5-min Rain = 0
KVA1 262240Z 27008KT 37/01 A2991 RMK A01 T03650008  RH  011%=      5-min Rain = 0
KVA1 262241Z 26007KT 37/01 A2991 RMK A01 T03650008  RH  011%=      5-min Rain = 0
KVA1 262242Z 25010KT 37/01 A2991 RMK A01 T03670009  RH  011%=      5-min Rain = 0
KVA1 262243Z 24011KT 37/01 A2991 RMK A01 T03670006  RH  010%=      5-min Rain = 0
KVA1 262244Z 25008KT 37/00 A2991 RMK A01 T03650004  RH  010%=      5-min Rain = 0
KVA1 262245Z 26008KT 36/01 A2991 RMK A01 T03640006  RH  011%=      5-min Rain = 0
KVA1 262246Z 26007KT 37/01 A2991 RMK A01 T03650006  RH  011%=      5-min Rain = 0
KVA1 262247Z 28009KT 37/01 A2991 RMK A01 T03650008  RH  011%=      5-min Rain = 0
KVA1 262248Z 26013KT 37/01 A2991 RMK A01 T03650008  RH  011%=      5-min Rain = 0
KVA1 262249Z 29008KT 37/01 A2991 RMK A01 T03650006  RH  010%=      5-min Rain = 0
KVA1 262250Z 29010G15KT 36/01 A2991 RMK A01 T03630005  RH  011%=      5-min Rain = 0
KVA1 262251Z 29010KT 36/01 A2991 RMK A01 T03630006  RH  011%=      5-min Rain = 0
KVA1 262252Z 30009KT 36/01 A2991 RMK A01 T03630006  RH  011%=      5-min Rain = 0
KVA1 262253Z 29013G18KT 36/01 A2991 RMK A01 T03630008  RH  011%=      5-min Rain = 0
KVA1 262254Z 28013KT 36/01 A2991 RMK A01 T03640007  RH  011%=      5-min Rain = 0
KVA1 262255Z 27011KT 36/01 A2991 RMK A01 T03630007  RH  011%=      5-min Rain = 0
KVA1 262256Z 26008KT 36/01 A2991 RMK A01 T03610005  RH  011%=      5-min Rain = 0
KVA1 262257Z 25010KT 36/01 A2991 RMK A01 T03600005  RH  011%=      5-min Rain = 0
KVA1 262258Z 25011KT 36/01 A2991 RMK A01 T03610005  RH  011%=      5-min Rain = 0
KVA1 262259Z 26011G16KT 36/01 A2991 RMK A01 T03610006  RH  011%=      5-min Rain = 0
KVA1 262300Z 27012G17KT 36/01 A2991 RMK A01 T03620007  RH  011%=      5-min Rain = 0
KVA1 262301Z 28013KT 36/01 A2991 RMK A01 T03630006  RH  011%=      5-min Rain = 0
KVA1 262302Z 28012KT 36/00 A2991 RMK A01 T03600004  RH  011%=      5-min Rain = 0
KVA1 262303Z 28010KT 36/01 A2991 RMK A01 T03590005  RH  011%=      5-min Rain = 0
KVA1 262304Z 27010KT 36/01 A2991 RMK A01 T03590005  RH  011%=      5-min Rain = 0
KVA1 262305Z 27010KT 36/00 A2991 RMK A01 T03600004  RH  011%=      5-min Rain = 0
KVA1 262306Z 27011KT 36/00 A2991 RMK A01 T03590004  RH  011%=      5-min Rain = 0
KVA1 262307Z 28011KT 36/01 A2991 RMK A01 T03580005  RH  011%=      5-min Rain = 0
KVA1 262308Z 27010KT 36/01 A2991 RMK A01 T03580005  RH  011%=      5-min Rain = 0
KVA1 262309Z 26014KT 36/01 A2991 RMK A01 T03590005  RH  011%=      5-min Rain = 0
KVA1 262310Z 27014KT 36/01 A2991 RMK A01 T03600005  RH  011%=      5-min Rain = 0
KVA1 262311Z 27012KT 36/01 A2991 RMK A01 T03590006  RH  011%=      5-min Rain = 0
KVA1 262312Z 27011KT 36/01 A2991 RMK A01 T03600006  RH  011%=      5-min Rain = 0
KVA1 262313Z 26010KT 36/01 A2991 RMK A01 T03600006  RH  011%=      5-min Rain = 0
KVA1 262314Z 26008KT 36/01 A2991 RMK A01 T03600007  RH  011%=      5-min Rain = 0
KVA1 262315Z 26010KT 36/01 A2991 RMK A01 T03610006  RH  011%=      5-min Rain = 0
KVA1 262316Z 27009KT 36/00 A2991 RMK A01 T03600004  RH  011%=      5-min Rain = 0
KVA1 262317Z 27009KT 36/00 A2991 RMK A01 T03580003  RH  011%=      5-min Rain = 0
KVA1 262318Z 25007KT 36/01 A2991 RMK A01 T03580005  RH  011%=      5-min Rain = 0
KVA1 262319Z 25012KT 36/00 A2991 RMK A01 T03590003  RH  011%=      5-min Rain = 0
KVA1 262320Z 24011KT 36/00 A2991 RMK A01 T03600001  RH  010%=      5-min Rain = 0
KVA1 262321Z 23013KT 36/00 A2991 RMK A01 T03590001  RH  010%=      5-min Rain = 0
KVA1 262322Z 23013KT 36/00 A2991 RMK A01 T03580001  RH  010%=      5-min Rain = 0
KVA1 262323Z 23009KT 36/00 A2991 RMK A01 T035700-0  RH  010%=      5-min Rain = 0
KVA1 262324Z 24006KT 36/00 A2991 RMK A01 T03560001  RH  011%=      5-min Rain = 0
KVA1 262325Z 25006KT 36/00 A2991 RMK A01 T03570003  RH  011%=      5-min Rain = 0
KVA1 262326Z 25008KT 36/00 A2991 RMK A01 T03590004  RH  011%=      5-min Rain = 0
KVA1 262327Z 27008KT 36/00 A2991 RMK A01 T03600004  RH  011%=      5-min Rain = 0
KVA1 262328Z 28009KT 36/01 A2991 RMK A01 T03600005  RH  011%=      5-min Rain = 0
KVA1 262329Z 30009KT 36/01 A2991 RMK A01 T03580005  RH  011%=      5-min Rain = 0
KVA1 262330Z 30009KT 36/00 A2991 RMK A01 T03570004  RH  011%=      5-min Rain = 0
KVA1 262331Z 32009KT 36/00 A2991 RMK A01 T03560004  RH  011%=      5-min Rain = 0
KVA1 262332Z 32008KT 36/01 A2991 RMK A01 T03560005  RH  011%=      5-min Rain = 0
KVA1 262333Z 30007KT 36/01 A2991 RMK A01 T03560006  RH  011%=      5-min Rain = 0
KVA1 262334Z 29006KT 36/01 A2991 RMK A01 T03570007  RH  011%=      5-min Rain = 0
KVA1 262335Z 27010KT 36/01 A2991 RMK A01 T03580007  RH  011%=      5-min Rain = 0
KVA1 262336Z 27009KT 36/01 A2991 RMK A01 T03570005  RH  011%=      5-min Rain = 0
KVA1 262337Z 28012KT 36/01 A2991 RMK A01 T03570006  RH  011%=      5-min Rain = 0
KVA1 262338Z 27013KT 36/00 A2991 RMK A01 T03550004  RH  011%=      5-min Rain = 0
KVA1 262339Z 28011KT 35/00 A2991 RMK A01 T03540004  RH  011%=      5-min Rain = 0
KVA1 262340Z 28007G12KT 35/00 A2991 RMK A01 T03540004  RH  011%=      5-min Rain = 0
KVA1 262341Z 28007KT 35/01 A2991 RMK A01 T03540006  RH  011%=      5-min Rain = 0
KVA1 262342Z 28008KT 36/01 A2991 RMK A01 T03550007  RH  011%=      5-min Rain = 0
KVA1 262343Z 29008KT 36/01 A2991 RMK A01 T03550006  RH  011%=      5-min Rain = 0
KVA1 262344Z 27008KT 36/01 A2991 RMK A01 T03550007  RH  011%=      5-min Rain = 0
KVA1 262345Z 28011KT 36/01 A2991 RMK A01 T03550006  RH  011%=      5-min Rain = 0
KVA1 262346Z 27011KT 35/01 A2991 RMK A01 T03540005  RH  011%=      5-min Rain = 0
KVA1 262347Z 27012KT 35/00 A2991 RMK A01 T03530003  RH  011%=      5-min Rain = 0
KVA1 262348Z 27011KT 35/00 A2991 RMK A01 T03520002  RH  011%=      5-min Rain = 0
KVA1 262349Z 28009KT 35/00 A2991 RMK A01 T03520003  RH  011%=      5-min Rain = 0
KVA1 262350Z 28010KT 35/00 A2991 RMK A01 T03520004  RH  011%=      5-min Rain = 0
KVA1 262351Z 28009KT 35/00 A2991 RMK A01 T03520004  RH  011%=      5-min Rain = 0
KVA1 262352Z 27008KT 35/00 A2991 RMK A01 T03520004  RH  011%=      5-min Rain = 0
KVA1 262353Z 28008KT 35/00 A2991 RMK A01 T03510003  RH  011%=      5-min Rain = 0
KVA1 262354Z 27005KT 35/00 A2991 RMK A01 T03520003  RH  011%=      5-min Rain = 0
KVA1 262355Z 26008KT 35/00 A2991 RMK A01 T03520004  RH  011%=      5-min Rain = 0
KVA1 262356Z 26008KT 35/00 A2991 RMK A01 T03520002  RH  011%=      5-min Rain = 0
KVA1 262357Z 26010KT 35/00 A2991 RMK A01 T03520002  RH  011%=      5-min Rain = 0
KVA1 262358Z 27010KT 35/00 A2991 RMK A01 T03520002  RH  011%=      5-min Rain = 0
KVA1 262359Z 27012KT 35/00 A2991 RMK A01 T03520002  RH  011%=      5-min Rain = 0
KVA1 270000Z 25013KT 35/00 A2991 RMK A01 T03510001  RH  011%=      5-min Rain = 0
KVA1 270001Z 26013KT 35/00 A2991 RMK A01 T03500000  RH  011%=      5-min Rain = 0
KVA1 270002Z 26010KT 35/M00 A2991 RMK A01 T03501001  RH  011%=      5-min Rain = 0
KVA1 270003Z 26010KT 35/M00 A2991 RMK A01 T03491001  RH  011%=      5-min Rain = 0
KVA1 270004Z 27010KT 35/M00 A2991 RMK A01 T03491001  RH  011%=      5-min Rain = 0
KVA1 270005Z 28013KT 35/00 A2991 RMK A01 T034900-0  RH  011%=      5-min Rain = 0
KVA1 270006Z 28011KT 35/M00 A2991 RMK A01 T03481001  RH  011%=      5-min Rain = 0
KVA1 270007Z 28011KT 35/M00 A2991 RMK A01 T03471001  RH  011%=      5-min Rain = 0
KVA1 270008Z 27010KT 35/M00 A2991 RMK A01 T03471001  RH  011%=      5-min Rain = 0
KVA1 270009Z 27011KT 35/M00 A2991 RMK A01 T03471001  RH  011%=      5-min Rain = 0
KVA1 270010Z 28010KT 35/M00 A2991 RMK A01 T03471001  RH  011%=      5-min Rain = 0
KVA1 270011Z 28008KT 35/00 A2991 RMK A01 T034600-0  RH  011%=      5-min Rain = 0
KVA1 270012Z 26010KT 35/00 A2991 RMK A01 T034600-0  RH  011%=      5-min Rain = 0
KVA1 270013Z 26010KT 35/M00 A2991 RMK A01 T03461001  RH  011%=      5-min Rain = 0
KVA1 270014Z 26007KT 35/M00 A2991 RMK A01 T03461001  RH  011%=      5-min Rain = 0
KVA1 270015Z 25008KT 35/M00 A2991 RMK A01 T03461002  RH  011%=      5-min Rain = 0
KVA1 270016Z 26011KT 35/M00 A2991 RMK A01 T03461002  RH  011%=      5-min Rain = 0
KVA1 270017Z 26010KT 35/M00 A2991 RMK A01 T03461002  RH  011%=      5-min Rain = 0
KVA1 270018Z 27007KT 35/M00 A2991 RMK A01 T03451001  RH  011%=      5-min Rain = 0
KVA1 270019Z 27010KT 35/00 A2991 RMK A01 T034500-0  RH  011%=      5-min Rain = 0
KVA1 270020Z 27010KT 34/M00 A2991 RMK A01 T03441002  RH  011%=      5-min Rain = 0
KVA1 270021Z 27008KT 34/M00 A2991 RMK A01 T03441001  RH  011%=      5-min Rain = 0
KVA1 270022Z 28007KT 34/M00 A2991 RMK A01 T03441001  RH  011%=      5-min Rain = 0
KVA1 270023Z 28009KT 34/00 A2991 RMK A01 T03430000  RH  011%=      5-min Rain = 0
KVA1 270024Z 28010KT 34/00 A2991 RMK A01 T034200-0  RH  011%=      5-min Rain = 0
KVA1 270025Z 28010KT 34/M00 A2991 RMK A01 T03421001  RH  011%=      5-min Rain = 0
KVA1 270026Z 27008KT 34/00 A2991 RMK A01 T034100-0  RH  011%=      5-min Rain = 0
KVA1 270027Z 27009KT 34/00 A2991 RMK A01 T034000-0  RH  011%=      5-min Rain = 0
KVA1 270028Z 27009KT 34/M00 A2991 RMK A01 T03401001  RH  011%=      5-min Rain = 0
KVA1 270029Z 27008KT 34/M00 A2991 RMK A01 T03401001  RH  011%=      5-min Rain = 0
KVA1 270030Z 28007KT 34/M00 A2991 RMK A01 T03401001  RH  011%=      5-min Rain = 0
KVA1 270031Z 27006KT 34/00 A2991 RMK A01 T033900-0  RH  012%=      5-min Rain = 0
KVA1 270032Z 27006KT 34/00 A2991 RMK A01 T033800-0  RH  012%=      5-min Rain = 0
KVA1 270033Z 27006KT 34/00 A2991 RMK A01 T03370000  RH  012%=      5-min Rain = 0
KVA1 270034Z 27007KT 34/00 A2992 RMK A01 T03360000  RH  012%=      5-min Rain = 0
KVA1 270035Z 27006KT 34/00 A2992 RMK A01 T03360000  RH  012%=      5-min Rain = 0
KVA1 270036Z 27006KT 34/00 A2992 RMK A01 T033500-0  RH  012%=      5-min Rain = 0
KVA1 270037Z 26006KT 33/00 A2992 RMK A01 T033400-0  RH  012%=      5-min Rain = 0
KVA1 270038Z 27007KT 33/00 A2992 RMK A01 T033400-0  RH  012%=      5-min Rain = 0
KVA1 270039Z 27008KT 33/M00 A2992 RMK A01 T03331001  RH  012%=      5-min Rain = 0
KVA1 270040Z 27011KT 33/M00 A2992 RMK A01 T03331001  RH  012%=      5-min Rain = 0
KVA1 270041Z 27009KT 33/M00 A2992 RMK A01 T03331002  RH  012%=      5-min Rain = 0
KVA1 270042Z 26010KT 33/M00 A2992 RMK A01 T03331002  RH  012%=      5-min Rain = 0
KVA1 270043Z 26007KT 33/M00 A2992 RMK A01 T03341003  RH  012%=      5-min Rain = 0
KVA1 270044Z 27007KT 33/M00 A2992 RMK A01 T03331002  RH  012%=      5-min Rain = 0
KVA1 270045Z 27007KT 33/M00 A2992 RMK A01 T03321002  RH  012%=      5-min Rain = 0
KVA1 270046Z 27008KT 33/M00 A2992 RMK A01 T03311002  RH  012%=      5-min Rain = 0
KVA1 270047Z 27009KT 33/M00 A2992 RMK A01 T03301002  RH  012%=      5-min Rain = 0
KVA1 270048Z 27008KT 33/M00 A2992 RMK A01 T03301002  RH  012%=      5-min Rain = 0
KVA1 270049Z 27009KT 33/M00 A2992 RMK A01 T03301002  RH  012%=      5-min Rain = 0
KVA1 270050Z 27007KT 33/M00 A2992 RMK A01 T03301001  RH  012%=      5-min Rain = 0
KVA1 270051Z 27009KT 33/M00 A2992 RMK A01 T03301001  RH  012%=      5-min Rain = 0
KVA1 270052Z 26009KT 33/M00 A2992 RMK A01 T03301001  RH  012%=      5-min Rain = 0
KVA1 270053Z 26009KT 33/00 A2992 RMK A01 T033000-0  RH  012%=      5-min Rain = 0
KVA1 270054Z 27009KT 33/00 A2992 RMK A01 T03300000  RH  012%=      5-min Rain = 0
KVA1 270055Z 27007KT 33/00 A2992 RMK A01 T03290000  RH  012%=      5-min Rain = 0
KVA1 270056Z 27007KT 33/00 A2992 RMK A01 T03280001  RH  012%=      5-min Rain = 0
KVA1 270057Z 27008KT 33/00 A2992 RMK A01 T03270001  RH  012%=      5-min Rain = 0
KVA1 270058Z 27007KT 33/00 A2992 RMK A01 T03260001  RH  013%=      5-min Rain = 0
KVA1 270059Z 27008KT 33/00 A2992 RMK A01 T03250001  RH  013%=      5-min Rain = 0
KVA1 270100Z 27009KT 33/00 A2992 RMK A01 T03250001  RH  013%=      5-min Rain = 0
KVA1 270101Z 27008KT 33/00 A2992 RMK A01 T03250001  RH  013%=      5-min Rain = 0
KVA1 270102Z 27008KT 33/00 A2992 RMK A01 T03250001  RH  013%=      5-min Rain = 0
KVA1 270103Z 27008KT 33/00 A2992 RMK A01 T03250002  RH  013%=      5-min Rain = 0
KVA1 270104Z 27008KT 32/00 A2992 RMK A01 T03240001  RH  013%=      5-min Rain = 0
KVA1 270105Z 27007KT 32/00 A2992 RMK A01 T03240002  RH  013%=      5-min Rain = 0
KVA1 270106Z 27007KT 32/00 A2992 RMK A01 T03230002  RH  013%=      5-min Rain = 0
KVA1 270107Z 27007KT 32/00 A2992 RMK A01 T03220002  RH  013%=      5-min Rain = 0
KVA1 270108Z 27006KT 32/00 A2992 RMK A01 T03220003  RH  013%=      5-min Rain = 0
KVA1 270109Z 28007KT 32/00 A2992 RMK A01 T03200002  RH  013%=      5-min Rain = 0
KVA1 270110Z 27007KT 32/00 A2992 RMK A01 T03200003  RH  013%=      5-min Rain = 0
KVA1 270111Z 27008KT 32/00 A2992 RMK A01 T03190003  RH  013%=      5-min Rain = 0
KVA1 270112Z 27008KT 32/00 A2992 RMK A01 T03190003  RH  013%=      5-min Rain = 0
KVA1 270113Z 27007KT 32/00 A2992 RMK A01 T03200004  RH  013%=      5-min Rain = 0
KVA1 270114Z 28007KT 32/00 A2992 RMK A01 T03190004  RH  013%=      5-min Rain = 0
KVA1 270115Z 27007KT 32/00 A2992 RMK A01 T03180004  RH  013%=      5-min Rain = 0
KVA1 270116Z 27007KT 32/01 A2992 RMK A01 T03190005  RH  013%=      5-min Rain = 0
KVA1 270117Z 27008KT 32/00 A2992 RMK A01 T03190004  RH  013%=      5-min Rain = 0
KVA1 270118Z 27008KT 32/00 A2992 RMK A01 T03180004  RH  013%=      5-min Rain = 0
KVA1 270119Z 27007KT 32/00 A2992 RMK A01 T03180004  RH  013%=      5-min Rain = 0
KVA1 270120Z 27007KT 32/01 A2992 RMK A01 T03180005  RH  013%=      5-min Rain = 0
KVA1 270121Z 27007KT 32/01 A2992 RMK A01 T03170005  RH  014%=      5-min Rain = 0
KVA1 270122Z 28007KT 32/01 A2992 RMK A01 T03170005  RH  014%=      5-min Rain = 0
KVA1 270123Z 28007KT 32/01 A2992 RMK A01 T03160005  RH  014%=      5-min Rain = 0
KVA1 270124Z 28006KT 32/01 A2992 RMK A01 T03160005  RH  014%=      5-min Rain = 0
KVA1 270125Z 28007KT 31/01 A2992 RMK A01 T03140005  RH  014%=      5-min Rain = 0
KVA1 270126Z 28007KT 31/01 A2992 RMK A01 T03140005  RH  014%=      5-min Rain = 0
KVA1 270127Z 28007KT 31/01 A2992 RMK A01 T03120005  RH  014%=      5-min Rain = 0
KVA1 270128Z 28006KT 31/01 A2993 RMK A01 T03120005  RH  014%=      5-min Rain = 0
KVA1 270129Z 28006KT 31/01 A2993 RMK A01 T03110006  RH  014%=      5-min Rain = 0
KVA1 270130Z 29006KT 31/01 A2993 RMK A01 T03100005  RH  014%=      5-min Rain = 0
KVA1 270131Z 28007KT 31/01 A2993 RMK A01 T03080005  RH  014%=      5-min Rain = 0
KVA1 270132Z 28006KT 31/01 A2993 RMK A01 T03070006  RH  014%=      5-min Rain = 0
KVA1 270133Z 28006KT 31/01 A2993 RMK A01 T03060005  RH  014%=      5-min Rain = 0
KVA1 270134Z 28006KT 31/01 A2993 RMK A01 T03050006  RH  015%=      5-min Rain = 0
KVA1 270135Z 28006KT 30/01 A2993 RMK A01 T03040006  RH  015%=      5-min Rain = 0
KVA1 270136Z 28007KT 30/01 A2993 RMK A01 T03030006  RH  015%=      5-min Rain = 0
KVA1 270137Z 28007KT 30/01 A2993 RMK A01 T03020006  RH  015%=      5-min Rain = 0
KVA1 270138Z 28007KT 30/01 A2993 RMK A01 T03010006  RH  015%=      5-min Rain = 0
KVA1 270139Z 28007KT 30/01 A2993 RMK A01 T03010006  RH  015%=      5-min Rain = 0
KVA1 270140Z 28007KT 30/01 A2993 RMK A01 T03010007  RH  015%=      5-min Rain = 0
KVA1 270141Z 28007KT 30/01 A2993 RMK A01 T03000006  RH  015%=      5-min Rain = 0
KVA1 270142Z 28007KT 30/01 A2993 RMK A01 T02990006  RH  015%=      5-min Rain = 0
KVA1 270143Z 28007KT 30/01 A2993 RMK A01 T02990006  RH  015%=      5-min Rain = 0
KVA1 270144Z 28007KT 30/01 A2993 RMK A01 T02990006  RH  015%=      5-min Rain = 0
KVA1 270145Z 28007KT 30/01 A2993 RMK A01 T02980006  RH  015%=      5-min Rain = 0
KVA1 270146Z 28007KT 30/01 A2993 RMK A01 T02980006  RH  015%=      5-min Rain = 0
KVA1 270147Z 28007KT 30/01 A2993 RMK A01 T02970006  RH  015%=      5-min Rain = 0
KVA1 270148Z 29007KT 30/01 A2993 RMK A01 T02960006  RH  015%=      5-min Rain = 0
KVA1 270149Z 29006KT 30/01 A2993 RMK A01 T02950005  RH  015%=      5-min Rain = 0
KVA1 270150Z 29007KT 29/01 A2993 RMK A01 T02940006  RH  016%=      5-min Rain = 0
KVA1 270151Z 29007KT 29/01 A2993 RMK A01 T02940005  RH  016%=      5-min Rain = 0
KVA1 270152Z 29008KT 29/01 A2993 RMK A01 T02930006  RH  016%=      5-min Rain = 0
KVA1 270153Z 28007KT 29/01 A2993 RMK A01 T02930006  RH  016%=      5-min Rain = 0
KVA1 270154Z 28007KT 29/01 A2993 RMK A01 T02930006  RH  016%=      5-min Rain = 0
KVA1 270155Z 28008KT 29/01 A2993 RMK A01 T02920007  RH  016%=      5-min Rain = 0
KVA1 270156Z 28008KT 29/01 A2993 RMK A01 T02910006  RH  016%=      5-min Rain = 0
KVA1 270157Z 28008KT 29/01 A2993 RMK A01 T02910006  RH  016%=      5-min Rain = 0
KVA1 270158Z 27008KT 29/01 A2993 RMK A01 T02910006  RH  016%=      5-min Rain = 0
KVA1 270159Z 27008KT 29/01 A2993 RMK A01 T02910007  RH  016%=      5-min Rain = 0
KVA1 270200Z 28008KT 29/01 A2993 RMK A01 T02920007  RH  016%=      5-min Rain = 0
KVA1 270201Z 27008KT 29/01 A2993 RMK A01 T02930007  RH  016%=      5-min Rain = 0
KVA1 270202Z 27008KT 29/01 A2993 RMK A01 T02940007  RH  016%=      5-min Rain = 0
KVA1 270203Z 28008KT 30/01 A2993 RMK A01 T02950008  RH  016%=      5-min Rain = 0
KVA1 270204Z 28008KT 30/01 A2993 RMK A01 T02960008  RH  016%=      5-min Rain = 0
KVA1 270205Z 28008KT 30/01 A2993 RMK A01 T02970008  RH  016%=      5-min Rain = 0
KVA1 270206Z 28007KT 30/01 A2993 RMK A01 T02970008  RH  016%=      5-min Rain = 0
KVA1 270207Z 28007KT 30/01 A2993 RMK A01 T02980009  RH  016%=      5-min Rain = 0
KVA1 270208Z 28007KT 30/01 A2993 RMK A01 T02970008  RH  016%=      5-min Rain = 0
KVA1 270209Z 28007KT 30/01 A2993 RMK A01 T02970008  RH  016%=      5-min Rain = 0
KVA1 270210Z 28007KT 30/01 A2993 RMK A01 T02960008  RH  016%=      5-min Rain = 0
KVA1 270211Z 28007KT 30/01 A2993 RMK A01 T02960008  RH  016%=      5-min Rain = 0
KVA1 270212Z 28007KT 30/01 A2993 RMK A01 T02950008  RH  016%=      5-min Rain = 0
KVA1 270213Z 28007KT 30/01 A2994 RMK A01 T02950008  RH  016%=      5-min Rain = 0
KVA1 270214Z 28008KT 29/01 A2994 RMK A01 T02940008  RH  016%=      5-min Rain = 0
KVA1 270215Z 28008KT 29/01 A2994 RMK A01 T02940008  RH  016%=      5-min Rain = 0
KVA1 270216Z 28007KT 29/01 A2994 RMK A01 T02940009  RH  016%=      5-min Rain = 0
KVA1 270217Z 27007KT 29/01 A2994 RMK A01 T02940008  RH  016%=      5-min Rain = 0
KVA1 270218Z 27007KT 29/01 A2994 RMK A01 T02940008  RH  016%=      5-min Rain = 0
KVA1 270219Z 28008KT 30/01 A2994 RMK A01 T02950007  RH  016%=      5-min Rain = 0
KVA1 270220Z 28008KT 30/01 A2994 RMK A01 T02950007  RH  016%=      5-min Rain = 0
KVA1 270221Z 28008KT 30/01 A2994 RMK A01 T02960007  RH  016%=      5-min Rain = 0
KVA1 270222Z 28007KT 30/01 A2994 RMK A01 T02970008  RH  016%=      5-min Rain = 0
KVA1 270223Z 27007KT 30/01 A2994 RMK A01 T02960007  RH  015%=      5-min Rain = 0
KVA1 270224Z 28008KT 30/01 A2994 RMK A01 T02960007  RH  016%=      5-min Rain = 0
KVA1 270225Z 27008KT 30/01 A2994 RMK A01 T02950007  RH  016%=      5-min Rain = 0
KVA1 270226Z 27008KT 30/01 A2994 RMK A01 T02950007  RH  016%=      5-min Rain = 0
KVA1 270227Z 27008KT 30/01 A2994 RMK A01 T02950007  RH  016%=      5-min Rain = 0
KVA1 270228Z 27008KT 29/01 A2994 RMK A01 T02940006  RH  016%=      5-min Rain = 0
KVA1 270229Z 28008KT 30/01 A2994 RMK A01 T02950006  RH  016%=      5-min Rain = 0
KVA1 270230Z 28007KT 30/01 A2994 RMK A01 T02950006  RH  016%=      5-min Rain = 0
KVA1 270231Z 28008KT 30/01 A2994 RMK A01 T02950006  RH  015%=      5-min Rain = 0
KVA1 270232Z 27008KT 30/01 A2994 RMK A01 T02950006  RH  015%=      5-min Rain = 0
KVA1 270233Z 27008KT 30/01 A2994 RMK A01 T02950005  RH  015%=      5-min Rain = 0
KVA1 270234Z 27007KT 29/01 A2994 RMK A01 T02940005  RH  015%=      5-min Rain = 0
KVA1 270235Z 27008KT 29/01 A2994 RMK A01 T02930005  RH  016%=      5-min Rain = 0
KVA1 270236Z 28008KT 29/01 A2994 RMK A01 T02930005  RH  016%=      5-min Rain = 0
KVA1 270237Z 27008KT 29/01 A2994 RMK A01 T02920005  RH  016%=      5-min Rain = 0
KVA1 270238Z 27007KT 29/01 A2994 RMK A01 T02920006  RH  016%=      5-min Rain = 0
KVA1 270239Z 27008KT 29/01 A2994 RMK A01 T02920005  RH  016%=      5-min Rain = 0
KVA1 270240Z 27008KT 29/01 A2994 RMK A01 T02920005  RH  016%=      5-min Rain = 0
KVA1 270241Z 27008KT 29/01 A2994 RMK A01 T02910005  RH  016%=      5-min Rain = 0
KVA1 270242Z 27008KT 29/00 A2994 RMK A01 T02910004  RH  016%=      5-min Rain = 0
KVA1 270243Z 27008KT 29/01 A2994 RMK A01 T02920005  RH  016%=      5-min Rain = 0
KVA1 270244Z 27008KT 29/00 A2994 RMK A01 T02910004  RH  016%=      5-min Rain = 0
KVA1 270245Z 27007KT 29/01 A2994 RMK A01 T02920005  RH  016%=      5-min Rain = 0
KVA1 270246Z 27008KT 29/01 A2994 RMK A01 T02920005  RH  016%=      5-min Rain = 0
KVA1 270247Z 27008KT 29/00 A2994 RMK A01 T02920004  RH  016%=      5-min Rain = 0
KVA1 270248Z 27008KT 29/01 A2994 RMK A01 T02930005  RH  016%=      5-min Rain = 0
KVA1 270249Z 27007KT 29/01 A2994 RMK A01 T02930005  RH  016%=      5-min Rain = 0
KVA1 270250Z 27008KT 29/01 A2994 RMK A01 T02940005  RH  016%=      5-min Rain = 0
KVA1 270251Z 27007KT 29/01 A2994 RMK A01 T02940005  RH  016%=      5-min Rain = 0
KVA1 270252Z 27007KT 29/01 A2994 RMK A01 T02940006  RH  016%=      5-min Rain = 0
KVA1 270253Z 27006KT 30/01 A2994 RMK A01 T02950006  RH  015%=      5-min Rain = 0
KVA1 270254Z 27007KT 29/01 A2994 RMK A01 T02940006  RH  016%=      5-min Rain = 0
KVA1 270255Z 27006KT 29/01 A2994 RMK A01 T02940006  RH  016%=      5-min Rain = 0
KVA1 270256Z 27007KT 29/01 A2994 RMK A01 T02930006  RH  016%=      5-min Rain = 0
KVA1 270257Z 27007KT 29/01 A2994 RMK A01 T02920006  RH  016%=      5-min Rain = 0
KVA1 270258Z 27007KT 29/01 A2994 RMK A01 T02920006  RH  016%=      5-min Rain = 0
KVA1 270259Z 27007KT 29/01 A2994 RMK A01 T02910006  RH  016%=      5-min Rain = 0
KVA1 270300Z 27008KT 29/01 A2994 RMK A01 T02900006  RH  016%=      5-min Rain = 0
KVA1 270301Z 27007KT 29/01 A2994 RMK A01 T02890006  RH  016%=      5-min Rain = 0
KVA1 270302Z 27007KT 29/01 A2994 RMK A01 T02890006  RH  016%=      5-min Rain = 0
KVA1 270303Z 27007KT 29/01 A2994 RMK A01 T02890007  RH  016%=      5-min Rain = 0
KVA1 270304Z 27006KT 29/01 A2994 RMK A01 T02880006  RH  016%=      5-min Rain = 0
KVA1 270305Z 26006KT 29/01 A2994 RMK A01 T02880007  RH  016%=      5-min Rain = 0
KVA1 270306Z 27007KT 29/01 A2994 RMK A01 T02870007  RH  016%=      5-min Rain = 0
KVA1 270307Z 27007KT 29/01 A2994 RMK A01 T02860007  RH  016%=      5-min Rain = 0
KVA1 270308Z 27006KT 29/01 A2994 RMK A01 T02860007  RH  016%=      5-min Rain = 0
KVA1 270309Z 27007KT 29/01 A2994 RMK A01 T02860007  RH  016%=      5-min Rain = 0
KVA1 270310Z 27007KT 29/01 A2994 RMK A01 T02860007  RH  016%=      5-min Rain = 0
KVA1 270311Z 27007KT 29/01 A2994 RMK A01 T02860007  RH  016%=      5-min Rain = 0
KVA1 270312Z 27007KT 29/01 A2994 RMK A01 T02860007  RH  016%=      5-min Rain = 0
KVA1 270313Z 27007KT 29/01 A2994 RMK A01 T02860007  RH  016%=      5-min Rain = 0
KVA1 270314Z 27008KT 29/01 A2994 RMK A01 T02860007  RH  016%=      5-min Rain = 0
KVA1 270315Z 27008KT 29/01 A2994 RMK A01 T02860007  RH  016%=      5-min Rain = 0
KVA1 270316Z 27008KT 29/01 A2994 RMK A01 T02870007  RH  016%=      5-min Rain = 0
KVA1 270317Z 27008KT 29/01 A2994 RMK A01 T02880007  RH  016%=      5-min Rain = 0
KVA1 270318Z 27008KT 29/01 A2994 RMK A01 T02890008  RH  016%=      5-min Rain = 0
KVA1 270319Z 27007KT 29/01 A2994 RMK A01 T02890007  RH  016%=      5-min Rain = 0
KVA1 270320Z 27007KT 29/01 A2994 RMK A01 T02890007  RH  016%=      5-min Rain = 0
KVA1 270321Z 27008KT 29/01 A2994 RMK A01 T02890007  RH  016%=      5-min Rain = 0
KVA1 270322Z 27008KT 29/01 A2994 RMK A01 T02890007  RH  016%=      5-min Rain = 0
KVA1 270323Z 27008KT 29/01 A2994 RMK A01 T02900007  RH  016%=      5-min Rain = 0
KVA1 270324Z 27007KT 29/01 A2994 RMK A01 T02900007  RH  016%=      5-min Rain = 0
KVA1 270325Z 27007KT 29/01 A2994 RMK A01 T02900007  RH  016%=      5-min Rain = 0
KVA1 270326Z 27008KT 29/01 A2994 RMK A01 T02900007  RH  016%=      5-min Rain = 0
KVA1 270327Z 27009KT 29/01 A2994 RMK A01 T02900006  RH  016%=      5-min Rain = 0
KVA1 270328Z 27008KT 29/01 A2994 RMK A01 T02900006  RH  016%=      5-min Rain = 0
KVA1 270329Z 27007KT 29/01 A2994 RMK A01 T02900006  RH  016%=      5-min Rain = 0
KVA1 270330Z 27008KT 29/01 A2994 RMK A01 T02890006  RH  016%=      5-min Rain = 0
KVA1 270331Z 27009KT 29/01 A2994 RMK A01 T02900006  RH  016%=      5-min Rain = 0
KVA1 270332Z 27008KT 29/01 A2994 RMK A01 T02900006  RH  016%=      5-min Rain = 0
KVA1 270333Z 27007KT 29/01 A2994 RMK A01 T02900006  RH  016%=      5-min Rain = 0
KVA1 270334Z 27008KT 29/01 A2994 RMK A01 T02900006  RH  016%=      5-min Rain = 0
KVA1 270335Z 27007KT 29/01 A2994 RMK A01 T02890006  RH  016%=      5-min Rain = 0
KVA1 270336Z 27007KT 29/01 A2994 RMK A01 T02880006  RH  016%=      5-min Rain = 0
KVA1 270337Z 27007KT 29/01 A2994 RMK A01 T02870005  RH  016%=      5-min Rain = 0
KVA1 270338Z 27008KT 29/01 A2994 RMK A01 T02860005  RH  016%=      5-min Rain = 0
KVA1 270339Z 28008KT 29/01 A2994 RMK A01 T02860005  RH  016%=      5-min Rain = 0
KVA1 270340Z 28008KT 29/01 A2994 RMK A01 T02850005  RH  016%=      5-min Rain = 0
KVA1 270341Z 28008KT 29/01 A2994 RMK A01 T02850005  RH  016%=      5-min Rain = 0
KVA1 270342Z 27008KT 29/01 A2994 RMK A01 T02850005  RH  016%=      5-min Rain = 0
KVA1 270343Z 27008KT 29/01 A2995 RMK A01 T02850005  RH  016%=      5-min Rain = 0
KVA1 270344Z 27007KT 29/01 A2994 RMK A01 T02850005  RH  016%=      5-min Rain = 0
KVA1 270345Z 27008KT 29/00 A2994 RMK A01 T02850004  RH  016%=      5-min Rain = 0
KVA1 270346Z 27007KT 29/01 A2994 RMK A01 T02850005  RH  016%=      5-min Rain = 0
KVA1 270347Z 27007KT 29/01 A2994 RMK A01 T02850005  RH  016%=      5-min Rain = 0
KVA1 270348Z 28007KT 29/01 A2995 RMK A01 T02850006  RH  016%=      5-min Rain = 0
KVA1 270349Z 28008KT 28/01 A2995 RMK A01 T02830005  RH  016%=      5-min Rain = 0
KVA1 270350Z 28008KT 28/01 A2995 RMK A01 T02830005  RH  016%=      5-min Rain = 0
KVA1 270351Z 28007KT 28/01 A2995 RMK A01 T02830005  RH  017%=      5-min Rain = 0
KVA1 270352Z 28007KT 28/01 A2995 RMK A01 T02820005  RH  017%=      5-min Rain = 0
KVA1 270353Z 28007KT 28/01 A2995 RMK A01 T02820005  RH  017%=      5-min Rain = 0
KVA1 270354Z 28008KT 28/01 A2995 RMK A01 T02820005  RH  017%=      5-min Rain = 0
KVA1 270355Z 28007KT 28/01 A2995 RMK A01 T02820005  RH  017%=      5-min Rain = 0
KVA1 270356Z 27007KT 28/01 A2995 RMK A01 T02810005  RH  017%=      5-min Rain = 0
KVA1 270357Z 28008KT 28/01 A2995 RMK A01 T02810005  RH  017%=      5-min Rain = 0
KVA1 270358Z 28007KT 28/01 A2995 RMK A01 T02810005  RH  017%=      5-min Rain = 0
KVA1 270359Z 28008KT 28/01 A2995 RMK A01 T02820005  RH  017%=      5-min Rain = 0
KVA1 270400Z 27008KT 28/01 A2995 RMK A01 T02820005  RH  017%=      5-min Rain = 0
KVA1 270401Z 27007KT 28/01 A2995 RMK A01 T02820005  RH  017%=      5-min Rain = 0
KVA1 270402Z 27007KT 28/00 A2995 RMK A01 T02820004  RH  016%=      5-min Rain = 0
KVA1 270403Z 27007KT 28/01 A2995 RMK A01 T02830005  RH  016%=      5-min Rain = 0
KVA1 270404Z 27007KT 28/01 A2995 RMK A01 T02830005  RH  016%=      5-min Rain = 0
KVA1 270405Z 27007KT 28/00 A2995 RMK A01 T02830004  RH  016%=      5-min Rain = 0
KVA1 270406Z 27008KT 28/01 A2995 RMK A01 T02830005  RH  016%=      5-min Rain = 0
KVA1 270407Z 27008KT 28/00 A2995 RMK A01 T02830004  RH  016%=      5-min Rain = 0
KVA1 270408Z 27007KT 28/00 A2995 RMK A01 T02820004  RH  016%=      5-min Rain = 0
KVA1 270409Z 28006KT 28/00 A2995 RMK A01 T02820004  RH  016%=      5-min Rain = 0
KVA1 270410Z 28007KT 28/00 A2995 RMK A01 T02810004  RH  017%=      5-min Rain = 0
KVA1 270411Z 28007KT 28/00 A2995 RMK A01 T02800004  RH  017%=      5-min Rain = 0
KVA1 270412Z 28007KT 28/01 A2995 RMK A01 T02790005  RH  017%=      5-min Rain = 0
KVA1 270413Z 28007KT 28/01 A2995 RMK A01 T02780005  RH  017%=      5-min Rain = 0
KVA1 270414Z 28007KT 28/01 A2995 RMK A01 T02780005  RH  017%=      5-min Rain = 0
KVA1 270415Z 27007KT 28/01 A2995 RMK A01 T02770005  RH  017%=      5-min Rain = 0
KVA1 270416Z 27007KT 28/01 A2995 RMK A01 T02760005  RH  017%=      5-min Rain = 0
KVA1 270417Z 27007KT 28/01 A2995 RMK A01 T02760005  RH  017%=      5-min Rain = 0
KVA1 270418Z 28007KT 28/01 A2995 RMK A01 T02750005  RH  017%=      5-min Rain = 0
KVA1 270419Z 27007KT 28/00 A2995 RMK A01 T02750004  RH  017%=      5-min Rain = 0
KVA1 270420Z 27007KT 28/01 A2995 RMK A01 T02750005  RH  017%=      5-min Rain = 0
KVA1 270421Z 28007KT 28/01 A2995 RMK A01 T02750005  RH  017%=      5-min Rain = 0
KVA1 270422Z 28008KT 28/01 A2995 RMK A01 T02750005  RH  017%=      5-min Rain = 0
KVA1 270423Z 28008KT 28/01 A2995 RMK A01 T02750005  RH  017%=      5-min Rain = 0
KVA1 270424Z 28008KT 28/00 A2995 RMK A01 T02750004  RH  017%=      5-min Rain = 0
KVA1 270425Z 28008KT 28/01 A2995 RMK A01 T02750005  RH  017%=      5-min Rain = 0
KVA1 270426Z 28007KT 28/01 A2995 RMK A01 T02750005  RH  017%=      5-min Rain = 0
KVA1 270427Z 28008KT 28/01 A2995 RMK A01 T02750005  RH  017%=      5-min Rain = 0
KVA1 270428Z 28008KT 27/01 A2995 RMK A01 T02740005  RH  017%=      5-min Rain = 0
KVA1 270429Z 28008KT 27/01 A2995 RMK A01 T02740005  RH  017%=      5-min Rain = 0
KVA1 270430Z 27007KT 27/00 A2995 RMK A01 T02740004  RH  017%=      5-min Rain = 0
KVA1 270431Z 27007KT 27/00 A2995 RMK A01 T02740004  RH  017%=      5-min Rain = 0
KVA1 270432Z 27008KT 27/00 A2995 RMK A01 T02740004  RH  017%=      5-min Rain = 0
KVA1 270433Z 27007KT 27/01 A2995 RMK A01 T02740005  RH  017%=      5-min Rain = 0
KVA1 270434Z 27007KT 27/00 A2995 RMK A01 T02740004  RH  017%=      5-min Rain = 0
KVA1 270435Z 27007KT 27/00 A2995 RMK A01 T02740004  RH  017%=      5-min Rain = 0
KVA1 270436Z 28007KT 28/00 A2995 RMK A01 T02750004  RH  017%=      5-min Rain = 0
KVA1 270437Z 27007KT 28/01 A2995 RMK A01 T02750005  RH  017%=      5-min Rain = 0
KVA1 270438Z 27006KT 28/00 A2995 RMK A01 T02750004  RH  017%=      5-min Rain = 0
KVA1 270439Z 27007KT 28/00 A2995 RMK A01 T02750004  RH  017%=      5-min Rain = 0
KVA1 270440Z 27007KT 27/00 A2995 RMK A01 T02740004  RH  017%=      5-min Rain = 0
KVA1 270441Z 26007KT 27/00 A2995 RMK A01 T02740004  RH  017%=      5-min Rain = 0
KVA1 270442Z 27006KT 27/00 A2995 RMK A01 T02730004  RH  017%=      5-min Rain = 0
KVA1 270443Z 27006KT 27/00 A2995 RMK A01 T02730004  RH  017%=      5-min Rain = 0
KVA1 270444Z 27006KT 27/00 A2995 RMK A01 T02730004  RH  017%=      5-min Rain = 0
KVA1 270445Z 27006KT 27/00 A2995 RMK A01 T02730004  RH  017%=      5-min Rain = 0
KVA1 270446Z 27005KT 27/00 A2995 RMK A01 T02720003  RH  017%=      5-min Rain = 0
KVA1 270447Z 26005KT 27/00 A2995 RMK A01 T02710004  RH  018%=      5-min Rain = 0
KVA1 270448Z 25004KT 27/01 A2995 RMK A01 T02690005  RH  018%=      5-min Rain = 0
KVA1 270449Z 24005KT 27/01 A2995 RMK A01 T02660005  RH  018%=      5-min Rain = 0
KVA1 270450Z 24006KT 26/01 A2995 RMK A01 T02620005  RH  019%=      5-min Rain = 0
KVA1 270451Z 24006KT 26/01 A2995 RMK A01 T02590005  RH  019%=      5-min Rain = 0
KVA1 270452Z 25007KT 26/01 A2995 RMK A01 T02570005  RH  019%=      5-min Rain = 0
KVA1 270453Z 25006KT 26/01 A2995 RMK A01 T02550005  RH  019%=      5-min Rain = 0
KVA1 270454Z 25007KT 26/01 A2995 RMK A01 T02550005  RH  020%=      5-min Rain = 0
KVA1 270455Z 25007KT 25/01 A2995 RMK A01 T02540005  RH  020%=      5-min Rain = 0
KVA1 270456Z 25006KT 25/01 A2995 RMK A01 T02540005  RH  020%=      5-min Rain = 0
KVA1 270457Z 25006KT 25/01 A2995 RMK A01 T02540006  RH  020%=      5-min Rain = 0
KVA1 270458Z 25006KT 25/01 A2995 RMK A01 T02540005  RH  020%=      5-min Rain = 0
KVA1 270459Z 25006KT 25/01 A2995 RMK A01 T02540006  RH  020%=      5-min Rain = 0

Page generated in 0.1291 seconds.